FR4742 / SP-RKT 7700 Squawk Report (24th of June, 2022)

Time Lat Lon Altitude Heading Speed Vertical Rate
2022-06-24 17:57:50 GMT 52.309467 4.752445 0 149 0 0
2022-06-24 17:57:46 GMT 52.309467 4.752445 0 149 0 0
2022-06-24 17:57:44 GMT 52.309479 4.752445 0 149 0 0
2022-06-24 17:57:43 GMT 52.309490 4.752445 0 149 0 0
2022-06-24 17:57:40 GMT 52.309437 4.752450 0 149 3 0
2022-06-24 17:57:39 GMT 52.309460 4.752431 0 149 3 0
2022-06-24 17:57:35 GMT 52.309490 4.752407 0 149 5 0
2022-06-24 17:57:34 GMT 52.309513 4.752388 0 149 6 0
2022-06-24 17:57:32 GMT 52.309551 4.752352 0 149 5 0
2022-06-24 17:57:30 GMT 52.309616 4.752274 0 154 4 0
2022-06-24 17:57:27 GMT 52.309631 4.752254 0 154 4 0
2022-06-24 17:57:25 GMT 52.309662 4.752235 0 157 4 0
2022-06-24 17:57:22 GMT 52.309715 4.752195 0 165 5 0
2022-06-24 17:57:17 GMT 52.309898 4.752097 0 219 7 0
2022-06-24 17:57:12 GMT 52.309898 4.752097 0 219 7 0
2022-06-24 17:57:11 GMT 52.309925 4.752140 0 230 8 0
2022-06-24 17:57:08 GMT 52.309994 4.752254 0 236 11 0
2022-06-24 17:57:05 GMT 52.310108 4.752509 0 236 15 0
2022-06-24 17:57:02 GMT 52.310188 4.752731 0 236 18 0
2022-06-24 17:57:01 GMT 52.310246 4.752903 0 236 18 0
2022-06-24 17:56:56 GMT 52.310509 4.753590 0 239 17 0
2022-06-24 17:56:53 GMT 52.310574 4.753745 0 239 16 0
2022-06-24 17:56:44 GMT 52.310936 4.754667 0 202 14 0
2022-06-24 17:56:41 GMT 52.311089 4.754883 0 202 14 0
2022-06-24 17:56:33 GMT 52.311611 4.754942 0 177 18 0
2022-06-24 17:56:30 GMT 52.311802 4.754925 0 177 20 0
2022-06-24 17:56:24 GMT 52.312473 4.754863 0 177 22 0
2022-06-24 17:56:17 GMT 52.313240 4.754804 0 177 21 0
2022-06-24 17:56:14 GMT 52.313530 4.754772 0 177 19 0
2022-06-24 17:56:10 GMT 52.313725 4.754753 0 177 18 0
2022-06-24 17:56:08 GMT 52.313919 4.754734 0 177 16 0
2022-06-24 17:56:07 GMT 52.313999 4.754734 0 177 15 0
2022-06-24 17:56:04 GMT 52.314217 4.754715 0 177 14 0
2022-06-24 17:56:01 GMT 52.314358 4.754706 0 177 12 0
2022-06-24 17:55:57 GMT 52.314613 4.754667 0 177 11 0
2022-06-24 17:55:54 GMT 52.314686 4.754658 0 177 10 0
2022-06-24 17:55:53 GMT 52.314754 4.754667 0 182 9 0
2022-06-24 17:55:51 GMT 52.314835 4.754658 0 191 9 0
2022-06-24 17:55:50 GMT 52.314869 4.754658 0 196 9 0
2022-06-24 17:55:47 GMT 52.315018 4.754715 0 222 10 0
2022-06-24 17:55:45 GMT 52.315052 4.754753 0 233 10 0
2022-06-24 17:55:44 GMT 52.315132 4.754868 0 258 13 0
2022-06-24 17:55:42 GMT 52.315144 4.754944 0 264 13 0
2022-06-24 17:55:39 GMT 52.315155 4.755287 0 267 19 0
2022-06-24 17:55:37 GMT 52.315186 4.755923 0 267 21 0
2022-06-24 17:55:35 GMT 52.315186 4.755923 0 267 20 0
2022-06-24 17:55:33 GMT 52.315189 4.756336 0 267 20 0
2022-06-24 17:55:30 GMT 52.315208 4.756668 0 267 19 0
2022-06-24 17:55:27 GMT 52.315224 4.757023 0 267 19 0
2022-06-24 17:55:26 GMT 52.315224 4.757233 0 264 19 0
2022-06-24 17:55:24 GMT 52.315243 4.757492 0 258 19 0
2022-06-24 17:55:23 GMT 52.315281 4.757767 0 250 19 0
2022-06-24 17:55:21 GMT 52.315311 4.757904 0 244 19 0
2022-06-24 17:55:19 GMT 52.315384 4.758129 0 239 19 0
2022-06-24 17:55:18 GMT 52.315430 4.758244 0 239 21 0
2022-06-24 17:55:14 GMT 52.315685 4.758885 0 239 26 0
2022-06-24 17:55:00 GMT 52.316666 4.761333 0 236 38 0
2022-06-24 17:54:57 GMT 52.316998 4.762249 0 244 39 0
2022-06-24 17:54:54 GMT 52.317127 4.762750 0 250 40 0
2022-06-24 17:54:52 GMT 52.317226 4.763489 0 261 41 0
2022-06-24 17:54:48 GMT 52.317307 4.765472 0 267 55 0
2022-06-24 17:54:44 GMT 52.317341 4.766541 0 267 58 0
2022-06-24 17:54:37 GMT 52.317432 4.769287 0 267 64 0
2022-06-24 17:54:35 GMT 52.317478 4.770432 0 267 66 0
2022-06-24 17:54:33 GMT 52.317638 4.776149 0 267 72 0
2022-06-24 17:54:24 GMT 52.317638 4.776149 0 267 90 0
2022-06-24 17:54:17 GMT 52.317856 4.782562 0 267 105 0
2022-06-24 17:54:13 GMT 52.317966 4.785566 125 267 143 -64
2022-06-24 17:54:08 GMT 52.318150 4.790745 150 267 147 -192
2022-06-24 17:54:06 GMT 52.318245 4.793100 175 267 146 -448
2022-06-24 17:54:03 GMT 52.318523 4.801025 250 267 146 0
2022-06-24 17:53:59 GMT 52.318523 4.801025 250 267 145 -768
2022-06-24 17:53:56 GMT 52.318665 4.804871 300 267 146 -768
2022-06-24 17:53:52 GMT 52.318802 4.809030 350 267 146 -832
2022-06-24 17:53:51 GMT 52.318863 4.810104 350 267 146 -832
2022-06-24 17:53:49 GMT 52.318909 4.812393 400 267 147 -832
2022-06-24 17:53:48 GMT 52.319000 4.815369 425 267 148 -704
2022-06-24 17:53:45 GMT 52.319046 4.816513 425 267 149 -704
2022-06-24 17:53:44 GMT 52.319130 4.818290 450 267 149 -832
2022-06-24 17:53:43 GMT 52.319138 4.819412 475 267 148 -896
2022-06-24 17:53:42 GMT 52.319221 4.822213 500 267 148 -896
2022-06-24 17:53:40 GMT 52.319221 4.822213 525 267 148 -768
2022-06-24 17:53:38 GMT 52.319321 4.824905 550 267 148 -768
2022-06-24 17:53:37 GMT 52.319366 4.826126 550 267 148 -832
2022-06-24 17:53:35 GMT 52.319454 4.828413 575 267 148 -768
2022-06-24 17:53:34 GMT 52.319500 4.830610 600 268 148 -832
2022-06-24 17:53:32 GMT 52.319550 4.831772 625 267 148 -832
2022-06-24 17:53:29 GMT 52.319687 4.836025 675 267 147 -768
2022-06-24 17:53:27 GMT 52.319733 4.837112 675 267 147 -768
2022-06-24 17:53:25 GMT 52.319824 4.839325 700 267 147 -704
2022-06-24 17:53:23 GMT 52.319920 4.842616 750 267 148 -704
2022-06-24 17:53:21 GMT 52.319962 4.843750 750 267 148 -768
2022-06-24 17:53:20 GMT 52.320015 4.846069 775 267 148 -640
2022-06-24 17:53:17 GMT 52.320061 4.847246 800 267 148 -640
2022-06-24 17:53:14 GMT 52.320190 4.851074 825 267 148 -704
2022-06-24 17:53:13 GMT 52.320236 4.852295 850 267 149 -768
2022-06-24 17:53:12 GMT 52.320282 4.853287 875 267 149 -768
2022-06-24 17:53:10 GMT 52.320385 4.855408 875 267 149 -768
2022-06-24 17:53:08 GMT 52.320480 4.857762 925 267 149 -768
2022-06-24 17:53:07 GMT 52.320511 4.858856 925 267 149 -768
2022-06-24 17:53:05 GMT 52.320602 4.861069 950 267 150 -768
2022-06-24 17:53:04 GMT 52.320740 4.865189 975 268 153 -896
2022-06-24 17:53:02 GMT 52.320740 4.865189 1,000 268 153 -896
2022-06-24 17:53:00 GMT 52.320786 4.867096 1,025 268 154 -896
2022-06-24 17:52:59 GMT 52.320877 4.869537 1,050 268 156 -960
2022-06-24 17:52:57 GMT 52.320877 4.870071 1,075 267 157 -896
2022-06-24 17:52:56 GMT 52.321014 4.874268 1,100 268 159 -960
2022-06-24 17:52:54 GMT 52.321014 4.874268 1,125 268 160 -960
2022-06-24 17:52:53 GMT 52.321106 4.877243 1,150 268 162 -832
2022-06-24 17:52:50 GMT 52.321178 4.880441 1,175 268 163 -896
2022-06-24 17:52:49 GMT 52.321178 4.880441 1,200 268 163 -960
2022-06-24 17:52:47 GMT 52.321243 4.882431 1,225 268 164 -1024
2022-06-24 17:52:46 GMT 52.321289 4.884109 1,250 268 164 -896
2022-06-24 17:52:45 GMT 52.321335 4.885406 1,250 268 165 -896
2022-06-24 17:52:44 GMT 52.321426 4.888687 1,275 268 166 -768
2022-06-24 17:52:42 GMT 52.321426 4.888687 1,300 267 167 -704
2022-06-24 17:52:40 GMT 52.321518 4.891815 1,325 266 168 -704
2022-06-24 17:52:39 GMT 52.321609 4.893875 1,350 265 167 -576
2022-06-24 17:52:37 GMT 52.321838 4.897690 1,375 263 167 -512
2022-06-24 17:52:35 GMT 52.321838 4.897690 1,375 261 167 -448
2022-06-24 17:52:33 GMT 52.322021 4.900055 1,375 257 166 -320
2022-06-24 17:52:31 GMT 52.322479 4.903107 1,400 255 166 -192
2022-06-24 17:52:30 GMT 52.322708 4.904327 1,400 250 166 -192
2022-06-24 17:52:29 GMT 52.323227 4.906651 1,400 245 168 -192
2022-06-24 17:52:27 GMT 52.323532 4.907684 1,400 243 168 -320
2022-06-24 17:52:25 GMT 52.324295 4.910025 1,425 239 169 -512
2022-06-24 17:52:23 GMT 52.325134 4.912223 1,425 238 171 -768
2022-06-24 17:52:22 GMT 52.325974 4.914498 1,475 238 171 -1088
2022-06-24 17:52:20 GMT 52.326782 4.916534 1,500 238 170 -1408
2022-06-24 17:52:17 GMT 52.327652 4.918747 1,550 238 170 -1472
2022-06-24 17:52:15 GMT 52.328205 4.920227 1,575 238 169 -1344
2022-06-24 17:52:14 GMT 52.329185 4.922660 1,625 238 168 -1344
2022-06-24 17:52:12 GMT 52.330032 4.924774 1,675 238 168 -1216
2022-06-24 17:52:10 GMT 52.330814 4.926819 1,700 238 170 -768
2022-06-24 17:52:08 GMT 52.331726 4.929123 1,725 238 170 -512
2022-06-24 17:52:06 GMT 52.332550 4.931259 1,750 238 170 -512
2022-06-24 17:52:04 GMT 52.333374 4.933411 1,775 238 173 -384
2022-06-24 17:52:02 GMT 52.333839 4.934588 1,775 238 173 -256
2022-06-24 17:52:00 GMT 52.334679 4.936707 1,775 238 173 -192
2022-06-24 17:51:59 GMT 52.335068 4.937744 1,775 238 172 -192
2022-06-24 17:51:58 GMT 52.335979 4.940002 1,775 237 171 -128
2022-06-24 17:51:56 GMT 52.336853 4.942169 1,800 237 171 -64
2022-06-24 17:51:54 GMT 52.337265 4.943314 1,800 237 170 -256
2022-06-24 17:51:52 GMT 52.338181 4.945526 1,800 237 170 -256
2022-06-24 17:51:50 GMT 52.339100 4.947771 1,800 235 170 -320
2022-06-24 17:51:49 GMT 52.339966 4.949799 1,825 232 170 -448
2022-06-24 17:51:47 GMT 52.340961 4.951930 1,850 228 169 -704
2022-06-24 17:51:45 GMT 52.341568 4.953029 1,875 224 168 -896
2022-06-24 17:51:43 GMT 52.342712 4.954910 1,900 221 168 -960
2022-06-24 17:51:41 GMT 52.343662 4.956247 1,925 215 168 -896
2022-06-24 17:51:39 GMT 52.344955 4.957733 1,950 213 168 -896
2022-06-24 17:51:38 GMT 52.345570 4.958365 1,975 210 169 -832
2022-06-24 17:51:36 GMT 52.346920 4.959621 2,000 209 170 -896
2022-06-24 17:51:34 GMT 52.348343 4.960861 2,025 208 170 -1088
2022-06-24 17:51:31 GMT 52.350693 4.962838 2,075 208 170 -1088
2022-06-24 17:51:30 GMT 52.352039 4.964015 2,125 208 171 -1024
2022-06-24 17:51:27 GMT 52.353439 4.965114 2,150 207 171 -960
2022-06-24 17:51:26 GMT 52.354042 4.965663 2,150 207 171 -960
2022-06-24 17:51:24 GMT 52.355713 4.967041 2,200 207 171 -832
2022-06-24 17:51:23 GMT 52.357040 4.968109 2,225 207 172 -704
2022-06-24 17:51:21 GMT 52.358650 4.969430 2,250 207 173 -704
2022-06-24 17:51:18 GMT 52.360561 4.970921 2,275 206 175 -640
2022-06-24 17:51:16 GMT 52.361305 4.971470 2,275 206 175 -640
2022-06-24 17:51:13 GMT 52.364471 4.973982 2,325 207 177 -768
2022-06-24 17:51:11 GMT 52.365124 4.974531 2,350 207 177 -768
2022-06-24 17:51:08 GMT 52.366608 4.975662 2,375 207 178 -640
2022-06-24 17:51:07 GMT 52.368073 4.976883 2,400 207 179 -512
2022-06-24 17:51:05 GMT 52.368893 4.977591 2,400 207 179 -448
2022-06-24 17:51:04 GMT 52.370956 4.979248 2,425 207 181 -832
2022-06-24 17:51:01 GMT 52.371780 4.979935 2,450 207 181 -896
2022-06-24 17:51:00 GMT 52.372513 4.980545 2,450 207 181 -1024
2022-06-24 17:50:58 GMT 52.374298 4.981995 2,500 208 182 -1152
2022-06-24 17:50:57 GMT 52.375038 4.982614 2,525 208 182 -1216
2022-06-24 17:50:55 GMT 52.376621 4.983948 2,575 207 181 -1408
2022-06-24 17:50:53 GMT 52.378159 4.985203 2,625 207 181 -1472
2022-06-24 17:50:51 GMT 52.380569 4.987183 2,700 207 180 -1152
2022-06-24 17:50:49 GMT 52.382160 4.988421 2,725 206 181 -1216
2022-06-24 17:50:47 GMT 52.382954 4.989049 2,750 206 181 -1216
2022-06-24 17:50:45 GMT 52.384460 4.990234 2,800 206 180 -1216
2022-06-24 17:50:44 GMT 52.385925 4.991455 2,825 206 180 -1088
2022-06-24 17:50:41 GMT 52.387283 4.992501 2,875 206 180 -1024
2022-06-24 17:50:39 GMT 52.388912 4.993757 2,900 206 180 -1024
2022-06-24 17:50:38 GMT 52.391331 4.995640 2,950 206 180 -1216
2022-06-24 17:50:36 GMT 52.392124 4.996268 3,000 206 179 -1600
2022-06-24 17:50:34 GMT 52.392868 4.996817 3,025 206 179 -1664
2022-06-24 17:50:32 GMT 52.394077 4.997838 3,075 206 178 -1536
2022-06-24 17:50:31 GMT 52.395126 4.998627 3,100 206 178 -1472
2022-06-24 17:50:29 GMT 52.396454 4.999643 3,150 207 179 -1344
2022-06-24 17:50:27 GMT 52.397644 5.000687 3,175 206 180 -1344
2022-06-24 17:50:26 GMT 52.398376 5.001221 3,225 206 180 -1344
2022-06-24 17:50:24 GMT 52.399990 5.002546 3,225 206 180 -1344
2022-06-24 17:50:23 GMT 52.400665 5.003052 3,275 206 180 -1408
2022-06-24 17:50:21 GMT 52.402317 5.004351 3,325 206 180 -1408
2022-06-24 17:50:20 GMT 52.403809 5.005607 3,350 206 180 -1408
2022-06-24 17:50:18 GMT 52.404598 5.006234 3,400 206 180 -1408
2022-06-24 17:50:17 GMT 52.406090 5.007411 3,425 206 181 -1344
2022-06-24 17:50:15 GMT 52.406937 5.008087 3,450 206 181 -1280
2022-06-24 17:50:12 GMT 52.408974 5.009687 3,500 206 181 -1280
2022-06-24 17:50:11 GMT 52.409729 5.010300 3,550 206 182 -1344
2022-06-24 17:50:10 GMT 52.410557 5.010943 3,575 206 182 -1408
2022-06-24 17:50:08 GMT 52.412048 5.012120 3,600 206 182 -1344
2022-06-24 17:50:07 GMT 52.412842 5.012741 3,625 206 182 -1344
2022-06-24 17:50:05 GMT 52.414284 5.013846 3,675 206 182 -1280
2022-06-24 17:50:03 GMT 52.416000 5.015182 3,700 206 183 -1152
2022-06-24 17:50:02 GMT 52.416870 5.015869 3,750 206 185 -960
2022-06-24 17:50:00 GMT 52.418335 5.017014 3,775 206 186 -896
2022-06-24 17:49:59 GMT 52.419113 5.017700 3,775 206 186 -896
2022-06-24 17:49:57 GMT 52.420567 5.018790 3,825 206 187 -960
2022-06-24 17:49:55 GMT 52.421871 5.019810 3,850 207 189 -1024
2022-06-24 17:49:54 GMT 52.423462 5.021133 3,875 207 190 -1024
2022-06-24 17:49:52 GMT 52.425110 5.022430 3,900 206 192 -1024
2022-06-24 17:49:50 GMT 52.425842 5.022964 3,925 207 192 -960
2022-06-24 17:49:49 GMT 52.426941 5.023880 3,950 207 193 -960
2022-06-24 17:49:46 GMT 52.428772 5.025330 4,000 206 194 -960
2022-06-24 17:49:45 GMT 52.429962 5.026321 4,000 206 196 -960
2022-06-24 17:49:43 GMT 52.431877 5.027815 4,050 207 198 -1024
2022-06-24 17:49:41 GMT 52.433510 5.029149 4,075 206 199 -1024
2022-06-24 17:49:40 GMT 52.434357 5.029755 4,100 206 199 -1024
2022-06-24 17:49:38 GMT 52.436024 5.031110 4,150 206 202 -1024
2022-06-24 17:49:37 GMT 52.436485 5.031503 4,150 206 203 -1088
2022-06-24 17:49:35 GMT 52.438248 5.032883 4,200 206 204 -1152
2022-06-24 17:49:34 GMT 52.439117 5.033569 4,200 207 204 -1152
2022-06-24 17:49:32 GMT 52.440910 5.034956 4,250 206 206 -1216
2022-06-24 17:49:30 GMT 52.442680 5.036368 4,300 206 207 -1216
2022-06-24 17:49:27 GMT 52.444794 5.038071 4,350 207 209 -1216
2022-06-24 17:49:26 GMT 52.445663 5.038757 4,375 206 211 -1280
2022-06-24 17:49:24 GMT 52.447723 5.040436 4,400 206 212 -1280
2022-06-24 17:49:23 GMT 52.449520 5.041861 4,450 206 212 -1408
2022-06-24 17:49:21 GMT 52.450035 5.042254 4,500 206 214 -1408
2022-06-24 17:49:19 GMT 52.451843 5.043640 4,525 205 215 -1536
2022-06-24 17:49:17 GMT 52.453995 5.045242 4,600 204 216 -1664
2022-06-24 17:49:16 GMT 52.454910 5.045853 4,625 203 216 -1728
2022-06-24 17:49:14 GMT 52.457344 5.047512 4,700 202 217 -1984
2022-06-24 17:49:11 GMT 52.459393 5.048767 4,775 200 217 -2048
2022-06-24 17:49:09 GMT 52.461346 5.049944 4,825 200 218 -2048
2022-06-24 17:49:08 GMT 52.462322 5.050494 4,900 200 219 -1984
2022-06-24 17:49:06 GMT 52.464325 5.051671 4,950 200 219 -1984
2022-06-24 17:49:05 GMT 52.465302 5.052220 5,000 200 219 -1984
2022-06-24 17:49:03 GMT 52.467350 5.053397 5,050 200 220 -1984
2022-06-24 17:49:02 GMT 52.470097 5.054967 5,125 200 221 -2048
2022-06-24 17:49:00 GMT 52.470097 5.054967 5,150 200 221 -2048
2022-06-24 17:48:58 GMT 52.471867 5.055987 5,225 200 221 -2048
2022-06-24 17:48:57 GMT 52.472900 5.056610 5,250 200 221 -2048
2022-06-24 17:48:56 GMT 52.475868 5.058262 5,350 200 222 -2048
2022-06-24 17:48:54 GMT 52.476929 5.058899 5,400 200 222 -2048
2022-06-24 17:48:52 GMT 52.477921 5.059440 5,425 200 222 -2048
2022-06-24 17:48:50 GMT 52.479996 5.060654 5,500 200 223 -2112
2022-06-24 17:48:49 GMT 52.480911 5.061188 5,525 200 223 -2176
2022-06-24 17:48:47 GMT 52.482697 5.062180 5,600 200 223 -2304
2022-06-24 17:48:45 GMT 52.484665 5.063324 5,675 200 223 -2304
2022-06-24 17:48:44 GMT 52.485626 5.063858 5,725 200 223 -2240
2022-06-24 17:48:42 GMT 52.487648 5.065011 5,800 200 224 -2112
2022-06-24 17:48:40 GMT 52.490814 5.066895 5,900 200 225 -1856
2022-06-24 17:48:37 GMT 52.492722 5.067978 5,950 200 225 -1792
2022-06-24 17:48:35 GMT 52.494724 5.069092 6,000 200 227 -1664
2022-06-24 17:48:33 GMT 52.496120 5.069955 6,050 200 228 -1664
2022-06-24 17:48:32 GMT 52.497116 5.070496 6,075 200 228 -1536
2022-06-24 17:48:31 GMT 52.498077 5.071054 6,100 200 231 -1344
2022-06-24 17:48:30 GMT 52.500031 5.072231 6,125 200 232 -1088
2022-06-24 17:48:28 GMT 52.502266 5.073486 6,150 200 234 -512
2022-06-24 17:48:26 GMT 52.503250 5.074081 6,175 200 236 -192
2022-06-24 17:48:23 GMT 52.506454 5.075912 6,175 200 241 -256
2022-06-24 17:48:21 GMT 52.508549 5.077175 6,175 200 242 -384
2022-06-24 17:48:20 GMT 52.511993 5.079215 6,200 200 245 -576
2022-06-24 17:48:17 GMT 52.513111 5.079843 6,225 200 247 -640
2022-06-24 17:48:16 GMT 52.514786 5.080795 6,225 200 247 -576
2022-06-24 17:48:14 GMT 52.515930 5.081482 6,250 200 249 -512
2022-06-24 17:48:13 GMT 52.517117 5.082197 6,250 200 250 -448
2022-06-24 17:48:11 GMT 52.519501 5.083542 6,275 200 253 -320
2022-06-24 17:48:09 GMT 52.522003 5.085022 6,275 200 256 -320
2022-06-24 17:48:07 GMT 52.524330 5.086356 6,300 200 259 -256
2022-06-24 17:48:05 GMT 52.527191 5.088043 6,300 200 259 -256
2022-06-24 17:48:03 GMT 52.528755 5.088946 6,300 200 261 -320
2022-06-24 17:48:02 GMT 52.529800 5.089569 6,300 200 262 -256
2022-06-24 17:48:01 GMT 52.532104 5.090908 6,325 200 264 -256
2022-06-24 17:47:59 GMT 52.534286 5.092239 6,325 200 266 -320
2022-06-24 17:47:57 GMT 52.535385 5.092850 6,325 200 267 -320
2022-06-24 17:47:56 GMT 52.537876 5.094360 6,350 200 270 -448
2022-06-24 17:47:54 GMT 52.539185 5.095139 6,350 201 271 -448
2022-06-24 17:47:52 GMT 52.541611 5.096588 6,375 201 273 -512
2022-06-24 17:47:50 GMT 52.543976 5.097970 6,375 200 276 -448
2022-06-24 17:47:49 GMT 52.545235 5.098755 6,400 201 277 -448
2022-06-24 17:47:48 GMT 52.547466 5.100089 6,400 200 280 -384
2022-06-24 17:47:45 GMT 52.551098 5.102208 6,425 199 284 -384
2022-06-24 17:47:43 GMT 52.552185 5.102768 6,425 199 285 -448
2022-06-24 17:47:42 GMT 52.555069 5.104370 6,450 198 287 -448
2022-06-24 17:47:40 GMT 52.558319 5.105972 6,475 195 290 -448
2022-06-24 17:47:38 GMT 52.558319 5.105972 6,475 194 293 -448
2022-06-24 17:47:36 GMT 52.560883 5.107040 6,475 192 295 -448
2022-06-24 17:47:35 GMT 52.561981 5.107422 6,500 190 297 -384
2022-06-24 17:47:33 GMT 52.564648 5.108172 6,500 187 300 -384
2022-06-24 17:47:32 GMT 52.568985 5.108871 6,525 185 304 -448
2022-06-24 17:47:30 GMT 52.568985 5.108871 6,525 183 307 -768
2022-06-24 17:47:27 GMT 52.574841 5.109349 6,575 183 310 -960
2022-06-24 17:47:25 GMT 52.577728 5.109584 6,625 183 315 -1024
2022-06-24 17:47:22 GMT 52.581070 5.109787 6,650 183 315 -1024
2022-06-24 17:47:20 GMT 52.583405 5.109977 6,675 183 316 -1024
2022-06-24 17:47:19 GMT 52.584896 5.110055 6,700 183 319 -1024
2022-06-24 17:47:17 GMT 52.588432 5.110291 6,750 183 323 -960
2022-06-24 17:47:16 GMT 52.589272 5.110369 6,750 183 323 -960
2022-06-24 17:47:15 GMT 52.592205 5.110526 6,775 183 326 -960
2022-06-24 17:47:13 GMT 52.594482 5.110703 6,800 183 326 -960
2022-06-24 17:47:12 GMT 52.595791 5.110761 6,825 183 328 -960
2022-06-24 17:47:09 GMT 52.599979 5.111075 6,875 183 332 -1088
2022-06-24 17:47:07 GMT 52.603146 5.111311 6,900 183 334 -1280
2022-06-24 17:47:05 GMT 52.606262 5.111468 6,950 183 336 -1600
2022-06-24 17:47:03 GMT 52.609406 5.111694 7,000 183 339 -1984
2022-06-24 17:47:02 GMT 52.613384 5.112017 7,075 183 339 -2176
2022-06-24 17:46:58 GMT 52.616505 5.112174 7,175 183 340 -2560
2022-06-24 17:46:57 GMT 52.617901 5.112331 7,200 183 341 -2752
2022-06-24 17:46:55 GMT 52.621124 5.112534 7,325 183 341 -3072
2022-06-24 17:46:54 GMT 52.622463 5.112645 7,425 183 341 -3328
2022-06-24 17:46:53 GMT 52.624138 5.112723 7,450 183 342 -3392
2022-06-24 17:46:51 GMT 52.627167 5.112915 7,575 183 342 -3328
2022-06-24 17:46:48 GMT 52.633404 5.113429 7,750 183 344 -2496
2022-06-24 17:46:47 GMT 52.636459 5.113602 7,825 183 345 -2304
2022-06-24 17:46:44 GMT 52.638611 5.113754 7,875 183 345 -2240
2022-06-24 17:46:43 GMT 52.642548 5.114059 7,925 183 346 -2048
2022-06-24 17:46:41 GMT 52.644333 5.114212 7,975 183 347 -1920
2022-06-24 17:46:38 GMT 52.647556 5.114450 8,050 183 348 -1792
2022-06-24 17:46:37 GMT 52.649826 5.114594 8,100 183 349 -1792
2022-06-24 17:46:36 GMT 52.651421 5.114685 8,125 183 350 -1856
2022-06-24 17:46:35 GMT 52.653233 5.114842 8,150 183 350 -1920
2022-06-24 17:46:33 GMT 52.656601 5.115128 8,225 183 351 -2304
2022-06-24 17:46:31 GMT 52.659939 5.115313 8,325 183 351 -2368
2022-06-24 17:46:30 GMT 52.661591 5.115509 8,350 183 352 -2368
2022-06-24 17:46:28 GMT 52.664734 5.115705 8,450 183 352 -2432
2022-06-24 17:46:26 GMT 52.667480 5.115941 8,500 183 353 -2432
2022-06-24 17:46:24 GMT 52.670784 5.116176 8,575 183 353 -2560
2022-06-24 17:46:23 GMT 52.672531 5.116272 8,625 183 354 -2560
2022-06-24 17:46:20 GMT 52.676605 5.116577 8,750 183 354 -2752
2022-06-24 17:46:19 GMT 52.679115 5.116804 8,900 183 354 -2944
2022-06-24 17:46:17 GMT 52.682934 5.117118 8,900 183 354 -3008
2022-06-24 17:46:15 GMT 52.687637 5.117432 9,075 183 354 -3072
2022-06-24 17:46:12 GMT 52.690887 5.117645 9,175 183 354 -3008
2022-06-24 17:46:11 GMT 52.692478 5.117746 9,225 183 354 -3008
2022-06-24 17:46:09 GMT 52.696247 5.117981 9,350 183 354 -2880
2022-06-24 17:46:07 GMT 52.701233 5.118332 9,475 183 354 -2816
2022-06-24 17:46:05 GMT 52.702206 5.118452 9,500 183 354 -2752
2022-06-24 17:46:03 GMT 52.705559 5.118687 9,600 183 355 -2752
2022-06-24 17:46:01 GMT 52.710388 5.119019 9,700 183 355 -2816
2022-06-24 17:46:00 GMT 52.710388 5.119019 9,800 183 355 -2880
2022-06-24 17:45:57 GMT 52.717667 5.119476 9,950 183 355 -3072
2022-06-24 17:45:55 GMT 52.719360 5.119553 10,050 182 355 -3072
2022-06-24 17:45:53 GMT 52.722610 5.119705 10,125 182 354 -3136
2022-06-24 17:45:50 GMT 52.726959 5.120010 10,250 182 354 -3136
2022-06-24 17:45:49 GMT 52.732040 5.120239 10,400 182 354 -3072
2022-06-24 17:45:44 GMT 52.736797 5.120492 10,550 182 354 -2944
2022-06-24 17:45:42 GMT 52.740509 5.120697 10,675 182 355 -2880
2022-06-24 17:45:40 GMT 52.743778 5.120884 10,750 182 355 -2752
2022-06-24 17:45:38 GMT 52.746918 5.121078 10,850 182 355 -2560
2022-06-24 17:45:37 GMT 52.748566 5.121155 10,875 182 355 -2432
2022-06-24 17:45:35 GMT 52.751740 5.121355 10,950 182 355 -2112
2022-06-24 17:45:33 GMT 52.755184 5.121512 11,025 182 355 -1856
2022-06-24 17:45:31 GMT 52.757446 5.121689 11,100 182 355 -1856
2022-06-24 17:45:29 GMT 52.760696 5.121841 11,150 182 355 -1856
2022-06-24 17:45:27 GMT 52.763947 5.121994 11,175 182 355 -1792
2022-06-24 17:45:25 GMT 52.767242 5.122219 11,250 182 355 -1792
2022-06-24 17:45:24 GMT 52.768936 5.122299 11,300 182 355 -1792
2022-06-24 17:45:22 GMT 52.772083 5.122454 11,375 182 356 -1792
2022-06-24 17:45:20 GMT 52.775200 5.122611 11,400 182 356 -1792
2022-06-24 17:45:18 GMT 52.778320 5.122768 11,450 182 357 -1792
2022-06-24 17:45:16 GMT 52.782372 5.123003 11,550 182 357 -1728
2022-06-24 17:45:14 GMT 52.785095 5.123138 11,550 182 357 -1728
2022-06-24 17:45:12 GMT 52.788712 5.123367 11,650 182 359 -1728
2022-06-24 17:45:11 GMT 52.790283 5.123474 11,675 182 359 -1728
2022-06-24 17:45:10 GMT 52.794147 5.123710 11,725 182 360 -1728
2022-06-24 17:45:08 GMT 52.795078 5.123710 11,750 182 360 -1728
2022-06-24 17:45:06 GMT 52.799084 5.123945 11,825 182 362 -1728
2022-06-24 17:45:04 GMT 52.802109 5.124102 11,875 182 363 -1728
2022-06-24 17:45:03 GMT 52.803879 5.124259 11,900 182 363 -1728
2022-06-24 17:45:01 GMT 52.807388 5.124435 11,975 182 364 -1728
2022-06-24 17:44:58 GMT 52.811699 5.124651 12,050 182 364 -1728
2022-06-24 17:44:57 GMT 52.814213 5.124730 12,075 182 365 -1728
2022-06-24 17:44:55 GMT 52.816956 5.124893 12,125 182 365 -1728
2022-06-24 17:44:54 GMT 52.819519 5.125044 12,175 182 366 -1728
2022-06-24 17:44:52 GMT 52.822815 5.125198 12,225 182 367 -1664
2022-06-24 17:44:51 GMT 52.824600 5.125275 12,250 182 367 -1664
2022-06-24 17:44:50 GMT 52.826504 5.125357 12,300 182 368 -1664
2022-06-24 17:44:48 GMT 52.829342 5.125514 12,325 182 368 -1664
2022-06-24 17:44:47 GMT 52.831299 5.125671 12,375 182 369 -1728
2022-06-24 17:44:45 GMT 52.834835 5.125828 12,425 182 369 -1856
2022-06-24 17:44:44 GMT 52.838333 5.126038 12,500 183 370 -2176
2022-06-24 17:44:42 GMT 52.840000 5.126142 12,550 183 370 -2368
2022-06-24 17:44:40 GMT 52.843506 5.126343 12,625 183 370 -2816
2022-06-24 17:44:39 GMT 52.847218 5.126535 12,725 183 370 -3136
2022-06-24 17:44:37 GMT 52.848194 5.126613 12,825 183 370 -3264
2022-06-24 17:44:34 GMT 52.854061 5.126927 12,950 183 369 -3392
2022-06-24 17:44:33 GMT 52.855591 5.127029 13,000 183 369 -3456
2022-06-24 17:44:30 GMT 52.859756 5.127258 13,150 183 368 -3712
2022-06-24 17:44:29 GMT 52.862206 5.127398 13,250 183 368 -3840
2022-06-24 17:44:28 GMT 52.867310 5.127716 13,400 183 367 -3840
2022-06-24 17:44:26 GMT 52.869232 5.127792 13,500 183 367 -3776
2022-06-24 17:44:23 GMT 52.871052 5.127869 13,575 183 366 -3712
2022-06-24 17:44:21 GMT 52.874771 5.128098 13,700 183 366 -3648
2022-06-24 17:44:20 GMT 52.877338 5.128261 13,800 183 365 -3584
2022-06-24 17:44:19 GMT 52.878983 5.128326 13,850 183 365 -3584
2022-06-24 17:44:17 GMT 52.882050 5.128555 13,950 183 365 -3200
2022-06-24 17:44:15 GMT 52.885712 5.128708 14,075 183 366 -2944
2022-06-24 17:44:13 GMT 52.889786 5.128937 14,150 183 366 -2432
2022-06-24 17:44:10 GMT 52.894981 5.129281 14,325 183 368 -1472
2022-06-24 17:44:07 GMT 52.899582 5.129547 14,325 183 368 -1472
2022-06-24 17:44:06 GMT 52.901451 5.129674 14,375 183 369 -1472
2022-06-24 17:44:04 GMT 52.905037 5.129909 14,400 183 369 -1536
2022-06-24 17:44:03 GMT 52.906853 5.129987 14,450 183 369 -1728
2022-06-24 17:44:02 GMT 52.907730 5.130081 14,475 183 370 -1856
2022-06-24 17:44:00 GMT 52.911507 5.130301 14,550 183 370 -1920
2022-06-24 17:43:59 GMT 52.916443 5.130694 14,600 183 371 -1856
2022-06-24 17:43:57 GMT 52.916443 5.130694 14,625 183 371 -1856
2022-06-24 17:43:54 GMT 52.920864 5.131086 14,700 183 371 -1856
2022-06-24 17:43:53 GMT 52.922516 5.131226 14,750 182 373 -1728
2022-06-24 17:43:51 GMT 52.926498 5.131531 14,800 182 373 -1728
2022-06-24 17:43:50 GMT 52.931057 5.131714 14,875 180 374 -1600
2022-06-24 17:43:47 GMT 52.932999 5.131760 14,925 178 374 -1600
2022-06-24 17:43:45 GMT 52.936432 5.131607 14,950 177 374 -1600
2022-06-24 17:43:43 GMT 52.939903 5.131321 15,025 175 375 -1536
2022-06-24 17:43:41 GMT 52.943436 5.130920 15,075 173 375 -1536
2022-06-24 17:43:39 GMT 52.945999 5.130463 15,125 173 375 -1408
2022-06-24 17:43:38 GMT 52.948654 5.129909 15,150 172 376 -1408
2022-06-24 17:43:37 GMT 52.951080 5.129395 15,200 170 375 -1408
2022-06-24 17:43:34 GMT 52.954708 5.128418 15,250 169 376 -1408
2022-06-24 17:43:33 GMT 52.957779 5.127476 15,300 168 376 -1472
2022-06-24 17:43:32 GMT 52.959595 5.126848 15,325 167 376 -1536
2022-06-24 17:43:30 GMT 52.963085 5.125514 15,375 165 376 -1664
2022-06-24 17:43:28 GMT 52.966393 5.124180 15,425 164 376 -1792
2022-06-24 17:43:27 GMT 52.967976 5.123474 15,450 163 377 -1920
2022-06-24 17:43:25 GMT 52.972862 5.121041 15,525 162 378 -2432
2022-06-24 17:43:24 GMT 52.972862 5.121041 15,550 161 377 -2560
2022-06-24 17:43:21 GMT 52.977814 5.118179 15,700 158 379 -2944
2022-06-24 17:43:18 GMT 52.982849 5.114899 15,850 156 379 -2752
2022-06-24 17:43:15 GMT 52.989761 5.109787 16,025 152 381 -2752
2022-06-24 17:43:12 GMT 52.992188 5.107803 16,075 152 381 -2752
2022-06-24 17:43:11 GMT 52.993904 5.106367 16,175 151 382 -2752
2022-06-24 17:43:10 GMT 52.997673 5.102836 16,275 149 383 -2688
2022-06-24 17:43:07 GMT 53.000141 5.100403 16,300 148 383 -2688
2022-06-24 17:43:05 GMT 53.002762 5.097733 16,425 145 386 -2560
2022-06-24 17:43:04 GMT 53.005821 5.094203 16,500 143 387 -2432
2022-06-24 17:43:02 GMT 53.008846 5.090515 16,575 141 388 -2368
2022-06-24 17:43:00 GMT 53.011780 5.086670 16,675 139 390 -2368
2022-06-24 17:42:57 GMT 53.014526 5.082668 16,750 135 393 -2432
2022-06-24 17:42:55 GMT 53.017136 5.078583 16,825 134 393 -2496
2022-06-24 17:42:54 GMT 53.018555 5.076065 16,875 132 394 -2496
2022-06-24 17:42:52 GMT 53.021988 5.069656 17,000 127 398 -2432
2022-06-24 17:42:51 GMT 53.021988 5.069656 17,000 127 398 -2432
2022-06-24 17:42:50 GMT 53.025654 5.061323 17,100 121 403 -2496
2022-06-24 17:42:48 GMT 53.025654 5.061323 17,125 121 403 -2496
2022-06-24 17:42:47 GMT 53.027847 5.055389 17,225 119 404 -2560
2022-06-24 17:42:44 GMT 53.030308 5.047512 17,325 116 406 -2688
2022-06-24 17:42:42 GMT 53.030308 5.047512 17,375 115 407 -2752
2022-06-24 17:42:41 GMT 53.031796 5.042018 17,500 112 410 -2752
2022-06-24 17:42:39 GMT 53.033287 5.035505 17,550 107 413 -2752
2022-06-24 17:42:37 GMT 53.033798 5.032806 17,625 105 414 -2816
2022-06-24 17:42:34 GMT 53.035721 5.020599 17,775 99 417 -3072
2022-06-24 17:42:32 GMT 53.036087 5.017395 17,950 98 419 -3200
2022-06-24 17:42:30 GMT 53.036591 5.011100 17,950 96 419 -3264
2022-06-24 17:42:28 GMT 53.036964 5.004822 18,050 92 421 -3264
2022-06-24 17:42:27 GMT 53.037094 5.001373 18,100 91 423 -3200
2022-06-24 17:42:26 GMT 53.037151 4.998073 18,150 91 423 -3136
2022-06-24 17:42:25 GMT 53.037197 4.993208 18,225 89 424 -3072
2022-06-24 17:42:22 GMT 53.037151 4.984968 18,350 88 424 -2880
2022-06-24 17:42:21 GMT 53.037106 4.980024 18,425 88 425 -2816
2022-06-24 17:42:20 GMT 53.037048 4.977188 18,475 88 425 -2752
2022-06-24 17:42:18 GMT 53.036911 4.971390 18,575 88 425 -2816
2022-06-24 17:42:17 GMT 53.036865 4.968414 18,600 88 425 0
2022-06-24 17:42:15 GMT 53.036728 4.961548 18,725 88 425 -3456
2022-06-24 17:42:14 GMT 53.036640 4.954677 18,900 88 426 -3584
2022-06-24 17:42:12 GMT 53.036545 4.951172 18,900 88 426 -3520
2022-06-24 17:42:10 GMT 53.036453 4.944916 19,025 88 427 -3328
2022-06-24 17:42:07 GMT 53.036312 4.936785 19,150 88 428 -3264
2022-06-24 17:42:06 GMT 53.036221 4.932312 19,200 88 429 -3264
2022-06-24 17:42:05 GMT 53.036125 4.927368 19,300 88 430 -3328
2022-06-24 17:42:03 GMT 53.036034 4.921012 19,425 88 431 -3520
2022-06-24 17:42:02 GMT 53.035995 4.918213 19,475 88 431 -3520
2022-06-24 17:42:00 GMT 53.035892 4.913086 19,625 88 432 -3520
2022-06-24 17:41:59 GMT 53.035755 4.903983 19,700 88 432 -3520
2022-06-24 17:41:57 GMT 53.035660 4.900766 19,825 88 433 -3456
2022-06-24 17:41:55 GMT 53.035629 4.897156 19,875 88 434 -3392
2022-06-24 17:41:53 GMT 53.035522 4.890642 19,950 88 435 -3392
2022-06-24 17:41:52 GMT 53.035381 4.884208 20,075 88 436 -3456
2022-06-24 17:41:49 GMT 53.035217 4.875793 20,225 88 436 -3648
2022-06-24 17:41:47 GMT 53.035126 4.870529 20,300 88 437 -3776
2022-06-24 17:41:45 GMT 53.035007 4.863883 20,375 88 438 -3712
2022-06-24 17:41:44 GMT 53.034943 4.860687 20,500 87 438 -3648
2022-06-24 17:41:43 GMT 53.034805 4.854355 20,625 87 440 -3392
2022-06-24 17:41:41 GMT 53.034729 4.850621 20,675 87 440 -3392
2022-06-24 17:41:38 GMT 53.034451 4.839007 20,850 88 442 -3328
2022-06-24 17:41:35 GMT 53.034302 4.828873 21,025 89 443 -3520
2022-06-24 17:41:33 GMT 53.034302 4.823380 21,125 92 442 -3840
2022-06-24 17:41:32 GMT 53.034359 4.816249 21,250 94 442 -3776
2022-06-24 17:41:29 GMT 53.034546 4.810364 21,375 94 442 -3776
2022-06-24 17:41:28 GMT 53.034714 4.805908 21,525 96 442 -3648
2022-06-24 17:41:26 GMT 53.035446 4.795532 21,625 97 441 -3584
2022-06-24 17:41:25 GMT 53.035446 4.795532 21,625 99 441 -3520
2022-06-24 17:41:24 GMT 53.036545 4.784927 21,800 102 441 -3584
2022-06-24 17:41:22 GMT 53.037384 4.778503 21,900 103 441 -3584
2022-06-24 17:41:20 GMT 53.037384 4.778503 21,925 104 440 -3584
2022-06-24 17:41:17 GMT 53.039154 4.767914 22,125 107 440 -3584
2022-06-24 17:41:15 GMT 53.040436 4.761658 22,225 108 439 -3584
2022-06-24 17:41:14 GMT 53.040970 4.759042 22,300 111 440 -3520
2022-06-24 17:41:12 GMT 53.042450 4.752731 22,425 113 439 -3456
2022-06-24 17:41:10 GMT 53.044182 4.746094 22,525 115 439 -3520
2022-06-24 17:41:09 GMT 53.046982 4.736862 22,700 117 439 -3648
2022-06-24 17:41:07 GMT 53.046982 4.736862 22,725 118 439 -3776
2022-06-24 17:41:05 GMT 53.048950 4.730988 22,850 121 438 -4224
2022-06-24 17:41:03 GMT 53.050976 4.725534 23,000 125 435 -5312
2022-06-24 17:41:00 GMT 53.054749 4.716666 23,300 127 432 -5952
2022-06-24 17:40:58 GMT 53.056610 4.712664 23,400 128 430 -6272
2022-06-24 17:40:56 GMT 53.060844 4.704581 23,700 132 426 -6464
2022-06-24 17:40:54 GMT 53.062336 4.701991 23,975 134 424 -6464
2022-06-24 17:40:53 GMT 53.065063 4.697495 24,200 136 421 -6400
2022-06-24 17:40:51 GMT 53.067688 4.693438 24,350 139 419 -6336
2022-06-24 17:40:49 GMT 53.069134 4.691319 24,450 141 415 -6336
2022-06-24 17:40:47 GMT 53.071884 4.687576 24,700 142 414 -6272
2022-06-24 17:40:46 GMT 53.073486 4.685516 24,800 143 413 -6272
2022-06-24 17:40:43 GMT 53.078209 4.679862 25,075 144 411 -6272
2022-06-24 17:40:42 GMT 53.080631 4.677272 25,175 147 409 -6336
2022-06-24 17:40:41 GMT 53.082306 4.675624 25,350 149 406 -6336
2022-06-24 17:40:40 GMT 53.083656 4.674290 25,425 151 403 -6336
2022-06-24 17:40:38 GMT 53.086170 4.671936 25,650 152 402 -6272
2022-06-24 17:40:37 GMT 53.089569 4.669033 25,800 155 399 -6272
2022-06-24 17:40:34 GMT 53.092640 4.666678 26,000 156 398 -6208
2022-06-24 17:40:32 GMT 53.098480 4.662755 26,350 161 392 -5888
2022-06-24 17:40:29 GMT 53.104706 4.659459 26,625 164 389 -5568
2022-06-24 17:40:27 GMT 53.104706 4.659459 26,775 165 388 -5440
2022-06-24 17:40:25 GMT 53.108963 4.657654 26,950 166 387 -5312
2022-06-24 17:40:24 GMT 53.111801 4.656634 26,975 168 386 -4928
2022-06-24 17:40:22 GMT 53.114056 4.655941 27,125 170 384 -4544
2022-06-24 17:40:21 GMT 53.117523 4.655064 27,200 171 384 -4288
2022-06-24 17:40:19 GMT 53.119034 4.654750 27,350 174 383 -3968
2022-06-24 17:40:18 GMT 53.124249 4.654002 27,450 177 384 -3072
2022-06-24 17:40:16 GMT 53.124249 4.654002 27,550 178 385 -2688
2022-06-24 17:40:14 GMT 53.127182 4.653809 27,625 181 386 -1984
2022-06-24 17:40:12 GMT 53.131348 4.653730 27,650 182 387 -1664
2022-06-24 17:40:11 GMT 53.133186 4.653760 27,675 183 387 -1408
2022-06-24 17:40:09 GMT 53.138306 4.654279 27,725 187 390 -896
2022-06-24 17:40:06 GMT 53.143757 4.655376 27,775 190 392 -896
2022-06-24 17:40:04 GMT 53.147415 4.656320 27,800 190 394 -960
2022-06-24 17:40:01 GMT 53.150986 4.657340 27,825 191 396 -1152
2022-06-24 17:40:00 GMT 53.152695 4.657880 27,850 191 396 -1280
2022-06-24 17:39:59 GMT 53.156509 4.659011 27,900 191 398 -1792
2022-06-24 17:39:57 GMT 53.162235 4.660788 28,000 191 398 -2176
2022-06-24 17:39:55 GMT 53.162235 4.660788 28,000 191 398 -2368
2022-06-24 17:39:54 GMT 53.164124 4.661342 28,050 191 399 -2624
2022-06-24 17:39:53 GMT 53.169708 4.663068 28,175 191 399 -2944
2022-06-24 17:39:51 GMT 53.171734 4.663696 28,250 191 398 -3328
2022-06-24 17:39:49 GMT 53.173504 4.664262 28,300 191 398 -3520
2022-06-24 17:39:48 GMT 53.178204 4.665716 28,425 191 396 -4096
2022-06-24 17:39:46 GMT 53.180717 4.666524 28,575 191 396 -4416
2022-06-24 17:39:44 GMT 53.182392 4.667089 28,650 191 395 -4608
2022-06-24 17:39:41 GMT 53.187195 4.668640 28,875 192 392 -5120
2022-06-24 17:39:38 GMT 53.194702 4.671073 29,275 192 388 -5696
2022-06-24 17:39:36 GMT 53.196396 4.671701 29,350 192 387 -5568
2022-06-24 17:39:35 GMT 53.201614 4.673427 29,625 192 386 -5440
2022-06-24 17:39:33 GMT 53.205250 4.674683 29,775 192 384 -5184
2022-06-24 17:39:31 GMT 53.205250 4.674683 29,800 192 384 -5120
2022-06-24 17:39:28 GMT 53.212280 4.677194 30,125 192 384 -4672
2022-06-24 17:39:25 GMT 53.216583 4.678685 30,300 192 384 -4288
2022-06-24 17:39:22 GMT 53.219971 4.679862 30,425 192 385 -3840
2022-06-24 17:39:20 GMT 53.224476 4.681388 30,575 192 385 -3456
2022-06-24 17:39:18 GMT 53.226837 4.682216 30,675 193 385 -3392
2022-06-24 17:39:16 GMT 53.230389 4.683488 30,775 193 386 -3328
2022-06-24 17:39:15 GMT 53.233704 4.684727 30,875 195 388 -2944
2022-06-24 17:39:13 GMT 53.237320 4.686061 31,000 195 388 -2944
2022-06-24 17:39:10 GMT 53.241142 4.687608 31,100 195 388 -2944
2022-06-24 17:39:09 GMT 53.242813 4.688259 31,150 196 389 -2880
2022-06-24 17:39:07 GMT 53.246201 4.689828 31,225 197 390 -3008
2022-06-24 17:39:05 GMT 53.248962 4.691162 31,325 201 392 -3136
2022-06-24 17:39:03 GMT 53.252457 4.693182 31,475 202 393 -3200
2022-06-24 17:39:01 GMT 53.256504 4.695847 31,500 202 393 -3200
2022-06-24 17:39:00 GMT 53.258102 4.696969 31,625 206 395 -3072
2022-06-24 17:38:58 GMT 53.262791 4.700775 31,700 208 397 -2624
2022-06-24 17:38:56 GMT 53.266022 4.703718 31,825 211 400 -2048
2022-06-24 17:38:53 GMT 53.269539 4.707238 31,850 216 406 -1664
2022-06-24 17:38:51 GMT 53.272522 4.710388 31,925 216 406 -1664
2022-06-24 17:38:49 GMT 53.275497 4.713920 32,000 218 409 -1984
2022-06-24 17:38:47 GMT 53.278107 4.717335 32,100 221 411 -2368
2022-06-24 17:38:45 GMT 53.280945 4.721375 32,100 222 412 -2624
2022-06-24 17:38:44 GMT 53.283085 4.724606 32,200 225 414 -2944
2022-06-24 17:38:42 GMT 53.285229 4.728079 32,350 227 417 -2816
2022-06-24 17:38:41 GMT 53.286671 4.730503 32,350 228 418 -2560
2022-06-24 17:38:38 GMT 53.290924 4.738246 32,450 231 422 -2112
2022-06-24 17:38:36 GMT 53.293671 4.743583 32,550 231 422 -2112
2022-06-24 17:38:35 GMT 53.294998 4.746251 32,575 232 424 -2560
2022-06-24 17:38:33 GMT 53.297565 4.751506 32,675 232 425 -2752
2022-06-24 17:38:31 GMT 53.299484 4.755511 32,750 233 425 -2944
2022-06-24 17:38:29 GMT 53.302185 4.761396 32,825 233 426 -2880
2022-06-24 17:38:28 GMT 53.302872 4.762977 32,975 234 427 -2368
2022-06-24 17:38:25 GMT 53.307083 4.772539 33,000 236 432 -1664
2022-06-24 17:38:23 GMT 53.309250 4.777679 33,075 237 432 -1792
2022-06-24 17:38:22 GMT 53.310505 4.780830 33,100 238 434 -2048
2022-06-24 17:38:20 GMT 53.312695 4.786323 33,175 238 434 -2368
2022-06-24 17:38:19 GMT 53.314957 4.792393 33,275 239 435 -2688
2022-06-24 17:38:17 GMT 53.316101 4.795454 33,325 240 437 -2816
2022-06-24 17:38:15 GMT 53.318233 4.801429 33,425 240 438 -2816
2022-06-24 17:38:14 GMT 53.320282 4.807407 33,525 241 438 -2624
2022-06-24 17:38:11 GMT 53.321819 4.812012 33,600 243 441 -2688
2022-06-24 17:38:09 GMT 53.323837 4.818290 33,700 243 441 -2944
2022-06-24 17:38:07 GMT 53.325668 4.824175 33,800 244 441 -3328
2022-06-24 17:38:05 GMT 53.327496 4.830268 33,925 245 442 -3776
2022-06-24 17:38:04 GMT 53.330105 4.839478 34,075 245 442 -3776
2022-06-24 17:38:02 GMT 53.330978 4.842538 34,175 246 442 -3584
2022-06-24 17:37:59 GMT 53.332718 4.848894 34,300 246 442 -3456
2022-06-24 17:37:58 GMT 53.333542 4.851955 34,350 246 442 -3392
2022-06-24 17:37:54 GMT 53.337021 4.864668 34,575 246 444 -2368
2022-06-24 17:37:52 GMT 53.338856 4.871306 34,650 246 445 -1984
2022-06-24 17:37:51 GMT 53.341049 4.879264 34,725 246 446 -1920
2022-06-24 17:37:49 GMT 53.341049 4.879264 34,725 246 446 -1920
2022-06-24 17:37:48 GMT 53.343201 4.887033 34,825 246 448 -2368
2022-06-24 17:37:45 GMT 53.344582 4.891986 34,900 246 447 -2752
2022-06-24 17:37:44 GMT 53.345581 4.895665 34,975 245 447 -4416
2022-06-24 17:37:42 GMT 53.347420 4.902245 35,125 245 445 -4800
2022-06-24 17:37:41 GMT 53.349190 4.908465 35,300 245 444 -5504
2022-06-24 17:37:38 GMT 53.350708 4.913792 35,400 245 442 -5760
2022-06-24 17:37:37 GMT 53.351566 4.916705 35,575 245 440 -5952
2022-06-24 17:37:35 GMT 53.353428 4.923248 35,775 245 436 -5952
2022-06-24 17:37:34 GMT 53.354187 4.925956 35,875 245 436 -5952
2022-06-24 17:37:32 GMT 53.356079 4.932457 36,175 245 433 -5888
2022-06-24 17:37:30 GMT 53.357391 4.937099 36,175 245 433 -5888
2022-06-24 17:37:29 GMT 53.358315 4.940293 36,325 245 431 -5760
2022-06-24 17:37:28 GMT 53.359131 4.943141 36,400 245 430 -5696
2022-06-24 17:37:27 GMT 53.362061 4.953343 36,575 245 428 -5696
2022-06-24 17:37:25 GMT 53.362061 4.953343 36,725 245 427 -5632
2022-06-24 17:37:23 GMT 53.363201 4.957419 36,900 245 425 -5568
2022-06-24 17:37:20 GMT 53.367252 4.971394 37,175 245 422 -5248
2022-06-24 17:37:18 GMT 53.368137 4.974464 37,350 244 421 -4864
2022-06-24 17:37:17 GMT 53.369812 4.980280 37,500 244 419 -4544
2022-06-24 17:37:15 GMT 53.370804 4.983555 37,575 243 418 -4288
2022-06-24 17:37:12 GMT 53.373138 4.991010 37,775 242 417 -3392
2022-06-24 17:37:10 GMT 53.375401 4.997971 37,850 241 417 -2688
2022-06-24 17:37:09 GMT 53.377075 5.002938 37,925 241 418 -1856
2022-06-24 17:37:06 GMT 53.378906 5.008275 37,975 240 418 0
2022-06-24 17:37:05 GMT 53.380054 5.011462 38,000 239 418 -576
2022-06-24 17:37:03 GMT 53.381870 5.016632 38,000 238 420 -64
2022-06-24 17:37:02 GMT 53.384106 5.022529 38,000 237 421 -64
2022-06-24 17:36:59 GMT 53.385590 5.026559 38,000 237 421 -64
2022-06-24 17:36:57 GMT 53.388760 5.034485 38,000 236 422 0
2022-06-24 17:36:56 GMT 53.388760 5.034485 38,000 235 423 0
2022-06-24 17:36:54 GMT 53.390949 5.039736 38,000 233 426 64
2022-06-24 17:36:53 GMT 53.392624 5.043613 37,975 233 426 64
2022-06-24 17:36:51 GMT 53.398636 5.056771 37,975 229 432 0
2022-06-24 17:36:48 GMT 53.398636 5.056771 37,975 229 432 0
2022-06-24 17:36:45 GMT 53.402588 5.064778 37,975 230 431 -64
2022-06-24 17:36:42 GMT 53.409027 5.076861 37,975 227 434 0
2022-06-24 17:36:40 GMT 53.413666 5.084893 37,975 226 435 -64
2022-06-24 17:36:37 GMT 53.413666 5.084893 38,000 224 435 -64
2022-06-24 17:36:34 GMT 53.418365 5.092486 38,000 223 435 0
2022-06-24 17:36:31 GMT 53.426147 5.104013 38,000 220 434 64
2022-06-24 17:36:29 GMT 53.426147 5.104013 38,000 220 434 64
2022-06-24 17:36:25 GMT 53.435257 5.116725 38,000 220 433 -64
2022-06-24 17:36:22 GMT 53.436768 5.118844 38,000 220 433 -64
2022-06-24 17:36:19 GMT 53.439968 5.123345 38,000 220 433 -64
2022-06-24 17:36:17 GMT 53.442993 5.127476 38,000 220 433 0
2022-06-24 17:36:14 GMT 53.447617 5.133990 38,000 220 434 64
2022-06-24 17:36:11 GMT 53.457184 5.147252 38,000 220 434 0
2022-06-24 17:36:08 GMT 53.457184 5.147252 38,000 220 434 0
2022-06-24 17:36:05 GMT 53.462082 5.154079 38,000 220 434 64
2022-06-24 17:36:02 GMT 53.466064 5.159651 38,000 220 434 64
2022-06-24 17:35:59 GMT 53.471203 5.166805 38,000 220 434 64
2022-06-24 17:35:56 GMT 53.475578 5.172864 38,000 220 434 64
2022-06-24 17:35:53 GMT 53.480392 5.179583 38,000 220 433 0
2022-06-24 17:35:50 GMT 53.484612 5.185466 38,000 220 433 0
2022-06-24 17:35:47 GMT 53.489136 5.191825 38,000 220 433 0
2022-06-24 17:35:44 GMT 53.498764 5.205338 38,000 220 433 0
2022-06-24 17:35:41 GMT 53.498764 5.205338 38,000 220 433 64
2022-06-24 17:35:38 GMT 53.503979 5.212609 38,000 220 433 128
2022-06-24 17:35:35 GMT 53.508774 5.219291 38,000 220 433 64
2022-06-24 17:35:32 GMT 53.514999 5.228001 38,000 220 432 -128
2022-06-24 17:35:30 GMT 53.514999 5.228001 38,000 220 433 -128
2022-06-24 17:35:27 GMT 53.519989 5.234985 38,000 220 433 0
2022-06-24 17:35:25 GMT 53.524551 5.241286 38,000 220 433 -64
2022-06-24 17:35:22 GMT 53.529282 5.247934 38,000 220 433 -64
2022-06-24 17:35:19 GMT 53.532421 5.252273 38,000 220 433 -128
2022-06-24 17:35:16 GMT 53.536880 5.258527 38,000 220 433 -128
2022-06-24 17:35:13 GMT 53.541496 5.264955 38,000 220 433 -64
2022-06-24 17:35:10 GMT 53.545303 5.270142 38,025 220 432 0
2022-06-24 17:35:07 GMT 53.550018 5.276669 38,000 220 432 -64
2022-06-24 17:35:04 GMT 53.562725 5.293875 38,000 219 435 -64
2022-06-24 17:35:00 GMT 53.566448 5.298965 38,025 271 477 -128
2022-06-24 17:34:57 GMT 53.566448 5.298965 37,975 221 439 0
2022-06-24 17:34:55 GMT 53.569382 5.303101 37,975 223 443 64
2022-06-24 17:34:52 GMT 53.574600 5.311026 37,975 285 483 64
2022-06-24 17:34:50 GMT 53.577621 5.316010 37,975 227 450 64
2022-06-24 17:34:47 GMT 53.581253 5.322472 37,975 229 452 64
2022-06-24 17:34:45 GMT 53.583984 5.327506 37,975 233 457 64
2022-06-24 17:34:42 GMT 53.588470 5.336844 38,000 250 466 -64
2022-06-24 17:34:39 GMT 53.592796 5.346626 38,000 237 460 64
2022-06-24 17:34:36 GMT 53.597591 5.358905 38,000 239 461 0
2022-06-24 17:34:34 GMT 53.597591 5.358905 38,000 241 462 -64
2022-06-24 17:34:31 GMT 53.600990 5.369002 38,000 243 463 -64
2022-06-24 17:34:29 GMT 53.603119 5.376003 38,000 246 465 -64
2022-06-24 17:34:27 GMT 53.604855 5.382008 38,000 249 466 -64
2022-06-24 17:34:24 GMT 53.607414 5.392268 38,000 251 466 -64
2022-06-24 17:34:21 GMT 53.611420 5.411898 38,000 254 469 0
2022-06-24 17:34:18 GMT 53.613785 5.428502 38,000 255 469 0
2022-06-24 17:34:14 GMT 53.613785 5.428502 38,000 261 471 0
2022-06-24 17:34:11 GMT 53.614883 5.439723 38,000 264 473 -128
2022-06-24 17:34:08 GMT 53.615517 5.448815 38,000 267 475 -128
2022-06-24 17:34:05 GMT 53.615887 5.468364 38,025 270 477 -128
2022-06-24 17:34:03 GMT 53.615562 5.479027 38,025 275 479 -64
2022-06-24 17:34:00 GMT 53.615562 5.479027 38,000 278 481 64
2022-06-24 17:33:57 GMT 53.615005 5.487105 38,000 280 482 128
2022-06-24 17:33:54 GMT 53.613655 5.500596 38,000 283 485 64
2022-06-24 17:33:51 GMT 53.611176 5.518668 38,000 285 485 0
2022-06-24 17:33:49 GMT 53.611176 5.518668 38,000 285 485 0
2022-06-24 17:33:44 GMT 53.608749 5.534991 38,000 285 485 0
2022-06-24 17:33:41 GMT 53.606781 5.547939 38,025 285 484 0
2022-06-24 17:33:39 GMT 53.605831 5.554154 38,000 285 486 0
2022-06-24 17:33:37 GMT 53.602295 5.577602 38,000 285 486 0
2022-06-24 17:33:34 GMT 53.601273 5.584367 38,000 285 484 0
2022-06-24 17:33:31 GMT 53.601273 5.584367 38,000 285 484 0
2022-06-24 17:33:28 GMT 53.599407 5.596726 38,000 285 483 0
2022-06-24 17:33:25 GMT 53.597900 5.606559 38,000 285 470 0
2022-06-24 17:33:23 GMT 53.596802 5.613935 38,025 285 481 0
2022-06-24 17:33:20 GMT 53.594833 5.626962 38,000 285 480 0
2022-06-24 17:33:17 GMT 53.593552 5.635359 38,000 285 466 0
2022-06-24 17:33:14 GMT 53.591915 5.646165 38,000 285 479 64
2022-06-24 17:33:11 GMT 53.588840 5.666280 38,000 285 478 64
2022-06-24 17:33:09 GMT 53.588840 5.666280 38,000 285 476 0
2022-06-24 17:33:06 GMT 53.587189 5.676950 38,000 285 476 0
2022-06-24 17:33:02 GMT 53.585312 5.688956 38,025 285 470 0
2022-06-24 17:32:59 GMT 53.583210 5.702712 38,000 285 474 0
2022-06-24 17:32:56 GMT 53.581558 5.713283 38,025 285 472 0
2022-06-24 17:32:53 GMT 53.580093 5.722778 38,025 285 472 0
2022-06-24 17:32:50 GMT 53.577110 5.742134 38,000 285 470 0
2022-06-24 17:32:47 GMT 53.577110 5.742134 38,025 285 468 0
2022-06-24 17:32:44 GMT 53.575016 5.755382 38,000 285 468 0
2022-06-24 17:32:40 GMT 53.573570 5.764995 38,025 285 468 0
2022-06-24 17:32:38 GMT 53.571945 5.775434 38,000 285 467 0
2022-06-24 17:32:35 GMT 53.570454 5.784867 38,000 285 466 0
2022-06-24 17:32:32 GMT 53.569103 5.793511 38,000 285 466 0
2022-06-24 17:32:29 GMT 53.566963 5.807244 38,000 285 466 0
2022-06-24 17:32:26 GMT 53.565308 5.817967 38,000 285 465 0
2022-06-24 17:32:23 GMT 53.563980 5.826389 38,000 285 466 0
2022-06-24 17:32:20 GMT 53.562149 5.838135 38,000 285 465 0
2022-06-24 17:32:16 GMT 53.560043 5.851946 38,000 285 466 64
2022-06-24 17:32:13 GMT 53.558304 5.863226 38,000 285 467 64
2022-06-24 17:32:10 GMT 53.556908 5.872031 38,000 285 467 64
2022-06-24 17:32:07 GMT 53.555511 5.881159 38,000 285 467 0
2022-06-24 17:32:04 GMT 53.553543 5.893851 38,000 285 467 0
2022-06-24 17:32:00 GMT 53.550949 5.910321 38,000 285 467 -64
2022-06-24 17:31:57 GMT 53.550201 5.915168 38,000 285 467 -64
2022-06-24 17:31:54 GMT 53.548645 5.925241 38,000 285 467 -64
2022-06-24 17:31:51 GMT 53.546104 5.941342 38,000 285 467 0
2022-06-24 17:31:48 GMT 53.544708 5.950274 38,000 285 467 0
2022-06-24 17:31:45 GMT 53.543060 5.960946 38,000 285 467 -64
2022-06-24 17:31:42 GMT 53.539627 5.982762 38,000 285 467 0
2022-06-24 17:31:39 GMT 53.539627 5.982762 38,000 285 467 0
2022-06-24 17:31:36 GMT 53.537979 5.993120 38,000 285 467 0
2022-06-24 17:31:33 GMT 53.536148 6.004970 38,000 285 467 0
2022-06-24 17:31:30 GMT 53.534775 6.013681 38,000 285 467 0
2022-06-24 17:31:28 GMT 53.533997 6.018546 38,000 285 467 0
2022-06-24 17:31:25 GMT 53.532394 6.028826 38,000 285 467 -64
2022-06-24 17:31:22 GMT 53.530380 6.041460 38,000 285 467 0
2022-06-24 17:31:19 GMT 53.528648 6.052417 38,000 285 467 0
2022-06-24 17:31:17 GMT 53.528046 6.056375 38,000 285 467 0
2022-06-24 17:31:14 GMT 53.526089 6.068896 38,000 285 467 0
2022-06-24 17:31:11 GMT 53.522736 6.089819 38,000 286 468 0
2022-06-24 17:31:08 GMT 53.521088 6.100316 38,000 285 467 0
2022-06-24 17:31:05 GMT 53.521088 6.100316 38,000 285 467 0
2022-06-24 17:31:02 GMT 53.519573 6.110014 38,000 285 467 -64
2022-06-24 17:30:59 GMT 53.518158 6.119071 38,000 285 467 0
2022-06-24 17:30:56 GMT 53.516693 6.128174 38,000 285 467 0
2022-06-24 17:30:53 GMT 53.514450 6.142456 38,000 285 467 0
2022-06-24 17:30:51 GMT 53.513287 6.149840 38,000 285 467 0
2022-06-24 17:30:47 GMT 53.511017 6.163958 38,000 285 467 0
2022-06-24 17:30:44 GMT 53.509842 6.171489 38,000 285 467 64
2022-06-24 17:30:41 GMT 53.507858 6.183890 38,000 285 467 64
2022-06-24 17:30:38 GMT 53.505798 6.196917 38,000 285 467 64
2022-06-24 17:30:35 GMT 53.504471 6.205314 38,000 285 467 0
2022-06-24 17:30:32 GMT 53.502628 6.216727 38,000 285 467 0
2022-06-24 17:30:29 GMT 53.500168 6.232309 38,000 285 467 0
2022-06-24 17:30:27 GMT 53.500168 6.232309 38,000 285 467 0
2022-06-24 17:30:24 GMT 53.498253 6.244273 38,000 285 467 0
2022-06-24 17:30:21 GMT 53.497459 6.249201 38,000 285 467 0
2022-06-24 17:30:19 GMT 53.495689 6.260268 38,000 285 467 -64
2022-06-24 17:30:17 GMT 53.494621 6.267135 38,000 285 467 0
2022-06-24 17:30:14 GMT 53.490662 6.291935 38,000 285 467 0
2022-06-24 17:30:11 GMT 53.489777 6.297509 38,000 285 467 64
2022-06-24 17:30:06 GMT 53.488632 6.304583 38,000 285 467 0
2022-06-24 17:30:03 GMT 53.486240 6.319724 38,000 285 467 0
2022-06-24 17:30:00 GMT 53.484798 6.328690 38,000 285 467 -64
2022-06-24 17:29:57 GMT 53.483120 6.339354 38,000 285 467 0
2022-06-24 17:29:54 GMT 53.481628 6.348764 38,000 285 467 0
2022-06-24 17:29:51 GMT 53.480141 6.358095 38,000 285 467 0
2022-06-24 17:29:48 GMT 53.478699 6.366970 38,000 285 467 0
2022-06-24 17:29:45 GMT 53.476776 6.379054 38,000 285 467 0
2022-06-24 17:29:41 GMT 53.474182 6.395497 38,000 285 467 0
2022-06-24 17:29:38 GMT 53.472565 6.405657 38,000 286 468 0
2022-06-24 17:29:35 GMT 53.471008 6.415231 38,000 285 467 64
2022-06-24 17:29:32 GMT 53.469250 6.426275 38,000 286 468 0
2022-06-24 17:29:29 GMT 53.468033 6.433986 38,000 286 468 0
2022-06-24 17:29:26 GMT 53.466019 6.446463 38,000 286 468 0
2022-06-24 17:29:23 GMT 53.464462 6.456116 38,000 286 468 -64
2022-06-24 17:29:20 GMT 53.462872 6.465777 38,000 286 468 0
2022-06-24 17:29:17 GMT 53.460571 6.480286 38,000 286 468 0
2022-06-24 17:29:14 GMT 53.459518 6.486877 38,000 286 468 64
2022-06-24 17:29:11 GMT 53.457825 6.497393 38,000 286 468 64
2022-06-24 17:29:08 GMT 53.456177 6.507438 38,000 286 468 0
2022-06-24 17:29:05 GMT 53.454529 6.517875 38,000 286 468 0
2022-06-24 17:29:02 GMT 53.452816 6.528383 38,000 286 468 0
2022-06-24 17:28:59 GMT 53.449463 6.549144 38,000 286 468 0
2022-06-24 17:28:56 GMT 53.449463 6.549144 38,000 286 468 0
2022-06-24 17:28:53 GMT 53.447697 6.560211 38,000 286 468 0
2022-06-24 17:28:50 GMT 53.445927 6.571036 38,000 286 468 0
2022-06-24 17:28:47 GMT 53.444485 6.580003 38,000 286 468 -64
2022-06-24 17:28:44 GMT 53.442482 6.592443 38,000 286 468 0
2022-06-24 17:28:41 GMT 53.440659 6.603568 38,000 286 468 0
2022-06-24 17:28:38 GMT 53.439285 6.611965 38,000 286 468 0
2022-06-24 17:28:36 GMT 53.437683 6.622009 38,000 286 468 0
2022-06-24 17:28:33 GMT 53.436356 6.630092 38,000 286 468 0
2022-06-24 17:28:30 GMT 53.434341 6.642412 38,000 286 468 64
2022-06-24 17:28:27 GMT 53.432922 6.651280 38,000 286 468 64
2022-06-24 17:28:24 GMT 53.431263 6.661431 38,000 286 468 64
2022-06-24 17:28:21 GMT 53.429398 6.672703 38,000 286 467 0
2022-06-24 17:28:19 GMT 53.428299 6.679609 38,000 286 468 -64
2022-06-24 17:28:16 GMT 53.426239 6.692243 38,000 286 468 -64
2022-06-24 17:28:13 GMT 53.424545 6.702680 38,000 286 468 -64
2022-06-24 17:28:09 GMT 53.422184 6.717089 38,000 286 467 0
2022-06-24 17:28:06 GMT 53.421021 6.724118 38,000 286 467 0
2022-06-24 17:28:03 GMT 53.418972 6.736881 38,000 286 467 0
2022-06-24 17:28:00 GMT 53.417267 6.747096 38,000 286 467 0
2022-06-24 17:27:57 GMT 53.415253 6.759652 38,000 286 467 0
2022-06-24 17:27:54 GMT 53.413803 6.768305 38,000 286 467 0
2022-06-24 17:27:51 GMT 53.412369 6.777230 38,000 286 467 0
2022-06-24 17:27:49 GMT 53.411106 6.784946 38,000 286 467 -64
2022-06-24 17:27:46 GMT 53.409615 6.793994 38,000 286 467 0
2022-06-24 17:27:43 GMT 53.407845 6.804657 38,000 286 467 0
2022-06-24 17:27:40 GMT 53.404495 6.825256 38,000 286 468 0
2022-06-24 17:27:37 GMT 53.404495 6.825256 38,000 286 467 0
2022-06-24 17:27:34 GMT 53.401051 6.845856 38,000 286 468 0
2022-06-24 17:27:28 GMT 53.399002 6.858137 38,000 286 468 0
2022-06-24 17:27:25 GMT 53.397232 6.868879 38,000 286 468 0
2022-06-24 17:27:22 GMT 53.395386 6.880188 38,000 286 468 0
2022-06-24 17:27:18 GMT 53.393143 6.893685 38,000 286 468 0
2022-06-24 17:27:15 GMT 53.391632 6.902788 38,000 286 468 0
2022-06-24 17:27:13 GMT 53.390488 6.909537 38,000 286 468 0
2022-06-24 17:27:10 GMT 53.388805 6.919852 38,000 286 468 0
2022-06-24 17:27:07 GMT 53.387054 6.930411 38,000 286 468 0
2022-06-24 17:27:05 GMT 53.386185 6.935590 38,000 286 468 0
2022-06-24 17:27:02 GMT 53.382339 6.958819 38,000 286 467 0
2022-06-24 17:26:59 GMT 53.382339 6.958819 38,000 286 467 0
2022-06-24 17:26:57 GMT 53.381264 6.965090 38,000 286 467 0
2022-06-24 17:26:54 GMT 53.378704 6.980438 38,000 286 467 0
2022-06-24 17:26:50 GMT 53.376617 6.992876 38,000 286 467 0
2022-06-24 17:26:47 GMT 53.375816 6.997645 38,000 286 467 0
2022-06-24 17:26:45 GMT 53.372589 7.017046 38,000 286 467 0
2022-06-24 17:26:42 GMT 53.371170 7.025364 38,000 286 467 0
2022-06-24 17:26:40 GMT 53.371170 7.025364 38,000 286 467 0
2022-06-24 17:26:37 GMT 53.369442 7.035774 38,000 286 467 0
2022-06-24 17:26:34 GMT 53.367531 7.047245 38,000 286 467 0
2022-06-24 17:26:31 GMT 53.366364 7.054164 38,000 286 467 0
2022-06-24 17:26:28 GMT 53.364597 7.064532 38,000 286 467 0
2022-06-24 17:26:26 GMT 53.363342 7.071964 38,000 286 467 0
2022-06-24 17:26:23 GMT 53.361526 7.082870 38,000 286 467 0
2022-06-24 17:26:20 GMT 53.359589 7.094264 38,000 286 467 -64
2022-06-24 17:26:17 GMT 53.357849 7.104681 38,000 286 467 -64
2022-06-24 17:26:14 GMT 53.354141 7.126596 38,000 286 467 0
2022-06-24 17:26:11 GMT 53.354141 7.126596 38,000 286 467 0
2022-06-24 17:26:08 GMT 53.352676 7.135542 38,000 286 467 0
2022-06-24 17:26:06 GMT 53.351749 7.141032 38,000 286 467 0
2022-06-24 17:26:03 GMT 53.349838 7.152257 38,000 286 467 0
2022-06-24 17:26:00 GMT 53.348099 7.162694 38,000 286 466 0
2022-06-24 17:25:58 GMT 53.346680 7.171012 38,000 286 466 0
2022-06-24 17:25:56 GMT 53.345810 7.176348 38,000 286 466 0
2022-06-24 17:25:54 GMT 53.344303 7.185220 38,000 286 466 0
2022-06-24 17:25:51 GMT 53.342239 7.197536 38,000 286 466 0
2022-06-24 17:25:48 GMT 53.341095 7.204363 38,000 286 466 0
2022-06-24 17:25:45 GMT 53.339035 7.216605 38,000 286 466 0
2022-06-24 17:25:42 GMT 53.337616 7.225080 38,000 286 466 -64
2022-06-24 17:25:39 GMT 53.335552 7.237163 38,000 286 465 0
2022-06-24 17:25:36 GMT 53.334000 7.246582 38,000 286 465 0
2022-06-24 17:25:33 GMT 53.332199 7.257035 38,000 286 465 64
2022-06-24 17:25:30 GMT 53.330524 7.267133 38,000 286 464 0
2022-06-24 17:25:28 GMT 53.329651 7.272164 38,000 286 465 64
2022-06-24 17:25:25 GMT 53.327591 7.284420 38,000 286 465 0
2022-06-24 17:25:22 GMT 53.326099 7.293145 38,000 286 465 0
2022-06-24 17:25:19 GMT 53.324238 7.304050 38,000 286 465 0
2022-06-24 17:25:16 GMT 53.322002 7.317137 38,000 286 464 0
2022-06-24 17:25:13 GMT 53.320839 7.323923 38,000 286 464 0
2022-06-24 17:25:10 GMT 53.318527 7.337690 38,000 286 464 0
2022-06-24 17:25:07 GMT 53.316971 7.346636 38,000 286 464 0
2022-06-24 17:25:04 GMT 53.314880 7.358901 38,000 286 464 0
2022-06-24 17:25:01 GMT 53.313438 7.367464 38,000 286 463 -64
2022-06-24 17:24:58 GMT 53.310425 7.385010 38,000 286 463 0
2022-06-24 17:24:55 GMT 53.310425 7.385010 38,000 286 463 0
2022-06-24 17:24:53 GMT 53.308968 7.393556 38,000 286 463 64
2022-06-24 17:24:50 GMT 53.306549 7.407855 38,000 286 463 0
2022-06-24 17:24:47 GMT 53.305199 7.415771 38,000 286 463 0
2022-06-24 17:24:44 GMT 53.304268 7.421345 38,000 286 463 0
2022-06-24 17:24:42 GMT 53.302505 7.431702 38,000 286 463 0
2022-06-24 17:24:39 GMT 53.301086 7.440177 38,000 287 462 0
2022-06-24 17:24:36 GMT 53.299099 7.451881 38,000 286 463 0
2022-06-24 17:24:33 GMT 53.297058 7.464033 38,000 286 463 0
2022-06-24 17:24:30 GMT 53.295868 7.471174 38,000 286 463 0
2022-06-24 17:24:27 GMT 53.293808 7.483416 38,000 286 463 0
2022-06-24 17:24:24 GMT 53.292255 7.492837 38,000 286 463 0
2022-06-24 17:24:22 GMT 53.289326 7.509963 38,000 286 463 64
2022-06-24 17:24:19 GMT 53.289326 7.509963 38,000 286 462 0
2022-06-24 17:24:16 GMT 53.287354 7.521711 38,000 286 462 0
2022-06-24 17:24:13 GMT 53.285248 7.534188 38,000 286 462 0
2022-06-24 17:24:10 GMT 53.283600 7.543568 38,000 286 462 0
2022-06-24 17:24:07 GMT 53.281830 7.554070 38,000 286 462 0
2022-06-24 17:24:04 GMT 53.278290 7.574759 38,000 286 462 -64
2022-06-24 17:24:01 GMT 53.276459 7.585353 38,000 286 461 -64
2022-06-24 17:23:58 GMT 53.276459 7.585353 38,000 287 462 0
2022-06-24 17:23:55 GMT 53.274719 7.595476 38,000 287 462 0
2022-06-24 17:23:52 GMT 53.272984 7.605609 38,000 287 458 64
2022-06-24 17:23:49 GMT 53.271587 7.613606 38,000 287 461 0
2022-06-24 17:23:46 GMT 53.268311 7.632516 38,000 287 461 0
2022-06-24 17:23:43 GMT 53.268311 7.632516 38,000 287 460 0
2022-06-24 17:23:40 GMT 53.266003 7.646000 38,000 287 460 0
2022-06-24 17:23:37 GMT 53.264465 7.654803 38,000 287 460 0
2022-06-24 17:23:34 GMT 53.261353 7.672695 38,000 287 459 0
2022-06-24 17:23:32 GMT 53.261353 7.672695 38,000 287 459 0
2022-06-24 17:23:29 GMT 53.259579 7.682917 38,000 287 459 64
2022-06-24 17:23:26 GMT 53.258102 7.691371 38,000 287 458 0
2022-06-24 17:23:23 GMT 53.256413 7.701174 38,000 287 458 0
2022-06-24 17:23:20 GMT 53.254303 7.713266 38,000 287 457 0
2022-06-24 17:23:17 GMT 53.252609 7.723075 38,000 287 458 0
2022-06-24 17:23:14 GMT 53.249268 7.742144 38,000 287 458 0
2022-06-24 17:23:12 GMT 53.249268 7.742144 38,000 287 458 0
2022-06-24 17:23:09 GMT 53.247940 7.749599 38,000 287 458 0
2022-06-24 17:23:06 GMT 53.245743 7.762233 38,000 287 457 0
2022-06-24 17:23:03 GMT 53.244370 7.770002 38,000 287 458 0
2022-06-24 17:23:01 GMT 53.242859 7.778634 38,000 287 457 0
2022-06-24 17:22:58 GMT 53.240936 7.789621 38,000 287 457 0
2022-06-24 17:22:55 GMT 53.240025 7.794638 38,000 287 457 0
2022-06-24 17:22:52 GMT 53.237465 7.809179 38,000 287 457 0
2022-06-24 17:22:49 GMT 53.235928 7.817984 38,000 287 457 0
2022-06-24 17:22:46 GMT 53.233841 7.829721 38,000 287 457 0
2022-06-24 17:22:43 GMT 53.232063 7.839634 38,000 287 457 0
2022-06-24 17:22:40 GMT 53.230576 7.848197 38,000 287 457 0
2022-06-24 17:22:37 GMT 53.228436 7.860233 38,000 287 457 0
2022-06-24 17:22:34 GMT 53.227249 7.866996 38,000 287 457 0
2022-06-24 17:22:32 GMT 53.224411 7.883004 38,000 287 457 0
2022-06-24 17:22:29 GMT 53.224411 7.883004 38,000 287 457 0
2022-06-24 17:22:26 GMT 53.222351 7.894854 38,000 287 457 0
2022-06-24 17:22:23 GMT 53.221161 7.901524 38,000 287 457 0
2022-06-24 17:22:20 GMT 53.218517 7.916780 38,000 287 456 0
2022-06-24 17:22:17 GMT 53.216858 7.926479 38,000 287 456 0
2022-06-24 17:22:14 GMT 53.214935 7.937703 38,000 287 456 0
2022-06-24 17:22:11 GMT 53.213516 7.945940 38,000 286 456 0
2022-06-24 17:22:08 GMT 53.211952 7.954829 38,000 287 456 64
2022-06-24 17:22:05 GMT 53.209812 7.967431 38,000 287 456 64
2022-06-24 17:22:02 GMT 53.208252 7.976624 38,000 287 456 0
2022-06-24 17:21:59 GMT 53.204597 7.997643 38,000 287 456 0
2022-06-24 17:21:56 GMT 53.204597 7.997643 38,000 287 456 0
2022-06-24 17:21:53 GMT 53.203014 8.006771 38,000 287 456 -64
2022-06-24 17:21:50 GMT 53.201111 8.017744 38,000 287 456 -64
2022-06-24 17:21:47 GMT 53.197338 8.039569 38,000 287 456 0
2022-06-24 17:21:44 GMT 53.196213 8.046151 38,000 287 456 0
2022-06-24 17:21:41 GMT 53.196213 8.046151 38,000 287 456 0
2022-06-24 17:21:38 GMT 53.193939 8.059037 38,000 287 456 0
2022-06-24 17:21:34 GMT 53.191704 8.071639 38,000 287 455 0
2022-06-24 17:21:31 GMT 53.189888 8.081898 38,000 287 455 64
2022-06-24 17:21:28 GMT 53.188385 8.090411 38,000 287 455 64
2022-06-24 17:21:25 GMT 53.186737 8.099592 38,000 287 455 0
2022-06-24 17:21:22 GMT 53.184631 8.111441 38,000 287 455 0
2022-06-24 17:21:19 GMT 53.183075 8.120074 38,000 287 455 0
2022-06-24 17:21:16 GMT 53.180626 8.133841 38,000 287 455 0
2022-06-24 17:21:13 GMT 53.179367 8.140950 38,000 287 456 0
2022-06-24 17:21:11 GMT 53.178112 8.147736 38,000 287 456 0
2022-06-24 17:21:09 GMT 53.176620 8.156093 38,000 287 456 0
2022-06-24 17:21:06 GMT 53.174652 8.167236 38,000 287 456 0
2022-06-24 17:21:03 GMT 53.173279 8.174848 38,000 287 455 0
2022-06-24 17:21:01 GMT 53.172058 8.181664 38,000 287 456 0
2022-06-24 17:20:58 GMT 53.170105 8.192489 38,000 287 457 0
2022-06-24 17:20:55 GMT 53.167007 8.209848 38,000 287 456 0
2022-06-24 17:20:52 GMT 53.167007 8.209848 38,000 287 456 0
2022-06-24 17:20:49 GMT 53.165031 8.220924 38,000 287 457 0
2022-06-24 17:20:45 GMT 53.162331 8.235788 38,000 287 457 0
2022-06-24 17:20:42 GMT 53.160793 8.244351 38,000 287 457 -64
2022-06-24 17:20:39 GMT 53.155811 8.272220 38,000 287 457 -64
2022-06-24 17:20:36 GMT 53.154461 8.279652 38,000 287 457 0
2022-06-24 17:20:32 GMT 53.154461 8.279652 38,000 287 457 0
2022-06-24 17:20:28 GMT 53.152359 8.291460 38,000 287 457 0
2022-06-24 17:20:25 GMT 53.150368 8.302514 38,000 287 457 0
2022-06-24 17:20:22 GMT 53.148514 8.312648 38,000 287 457 0
2022-06-24 17:20:20 GMT 53.145218 8.331011 38,000 287 457 0
2022-06-24 17:20:17 GMT 53.145218 8.331011 38,000 287 457 0
2022-06-24 17:20:13 GMT 53.143059 8.342904 38,000 287 457 0
2022-06-24 17:20:10 GMT 53.139084 8.364676 38,000 287 457 0
2022-06-24 17:20:07 GMT 53.139084 8.364676 38,000 287 457 0
2022-06-24 17:20:04 GMT 53.136017 8.381705 38,000 287 458 0
2022-06-24 17:20:01 GMT 53.136017 8.381705 38,000 287 458 0
2022-06-24 17:19:59 GMT 53.134586 8.389758 38,000 287 458 0
2022-06-24 17:19:56 GMT 53.132767 8.399833 38,000 287 458 0
2022-06-24 17:19:53 GMT 53.129417 8.418355 38,000 287 458 0
2022-06-24 17:19:50 GMT 53.129417 8.418355 38,000 287 459 0
2022-06-24 17:19:48 GMT 53.128281 8.424709 38,000 287 459 0
2022-06-24 17:19:45 GMT 53.126114 8.436692 38,000 287 461 -64
2022-06-24 17:19:40 GMT 53.121784 8.460846 38,000 287 459 -64
2022-06-24 17:19:36 GMT 53.120865 8.465986 38,000 287 459 -64
2022-06-24 17:19:33 GMT 53.118618 8.478456 38,000 287 459 0
2022-06-24 17:19:30 GMT 53.116989 8.487504 38,000 287 460 0
2022-06-24 17:19:27 GMT 53.115128 8.497844 38,000 287 459 0
2022-06-24 17:19:24 GMT 53.113312 8.508048 38,000 287 460 0
2022-06-24 17:19:21 GMT 53.111755 8.516837 38,000 287 460 0
2022-06-24 17:19:18 GMT 53.109913 8.527249 38,000 287 460 0
2022-06-24 17:19:15 GMT 53.107723 8.539447 38,000 287 460 0
2022-06-24 17:19:12 GMT 53.105896 8.549561 38,000 287 460 0
2022-06-24 17:19:09 GMT 53.104000 8.560127 38,000 287 460 0
2022-06-24 17:19:06 GMT 53.102184 8.570305 38,000 287 460 0
2022-06-24 17:19:03 GMT 53.100601 8.579030 38,000 287 461 0
2022-06-24 17:19:00 GMT 53.099075 8.587620 38,000 287 460 0
2022-06-24 17:18:58 GMT 53.097839 8.594369 38,000 287 461 0
2022-06-24 17:18:55 GMT 53.096054 8.604100 38,000 287 461 0
2022-06-24 17:18:52 GMT 53.093803 8.616342 38,000 287 461 -64
2022-06-24 17:18:49 GMT 53.092175 8.625445 38,000 287 461 0
2022-06-24 17:18:45 GMT 53.085800 8.660355 38,000 287 461 0
2022-06-24 17:18:39 GMT 53.085800 8.660355 38,000 287 461 0
2022-06-24 17:18:36 GMT 53.083797 8.671430 38,000 287 461 0
2022-06-24 17:18:33 GMT 53.082275 8.679733 38,000 287 462 0
2022-06-24 17:18:30 GMT 53.080078 8.691864 38,000 288 463 0
2022-06-24 17:18:27 GMT 53.078430 8.700943 38,000 287 462 0
2022-06-24 17:18:24 GMT 53.076443 8.711609 38,000 287 462 0
2022-06-24 17:18:21 GMT 53.073898 8.725586 38,000 287 462 64
2022-06-24 17:18:17 GMT 53.072437 8.733425 38,000 287 462 0
2022-06-24 17:18:14 GMT 53.070877 8.741913 38,000 287 462 0
2022-06-24 17:18:11 GMT 53.068386 8.755476 38,000 287 461 0
2022-06-24 17:18:08 GMT 53.066437 8.766098 38,000 287 461 0
2022-06-24 17:18:05 GMT 53.064617 8.776193 38,000 287 461 0
2022-06-24 17:18:02 GMT 53.063324 8.783264 38,000 287 461 0
2022-06-24 17:17:59 GMT 53.060890 8.796439 38,000 287 461 0
2022-06-24 17:17:56 GMT 53.059113 8.806381 38,000 287 462 0
2022-06-24 17:17:53 GMT 53.057281 8.816605 38,000 287 462 0
2022-06-24 17:17:50 GMT 53.055908 8.823929 38,000 287 462 0
2022-06-24 17:17:48 GMT 53.054398 8.832397 38,000 287 462 0
2022-06-24 17:17:45 GMT 53.052475 8.842850 38,000 287 462 0
2022-06-24 17:17:42 GMT 53.048557 8.864476 38,000 288 463 0
2022-06-24 17:17:39 GMT 53.046509 8.875462 38,000 287 463 0
2022-06-24 17:17:36 GMT 53.044922 8.883896 38,000 288 463 0
2022-06-24 17:17:33 GMT 53.044922 8.883896 38,000 288 463 0
2022-06-24 17:17:30 GMT 53.042877 8.895159 38,000 288 463 0
2022-06-24 17:17:26 GMT 53.039433 8.913600 38,000 288 463 0
2022-06-24 17:17:22 GMT 53.037735 8.922577 38,000 288 463 0
2022-06-24 17:17:19 GMT 53.034485 8.940201 38,000 288 463 0
2022-06-24 17:17:17 GMT 53.034485 8.940201 38,000 288 463 0
2022-06-24 17:17:14 GMT 53.032883 8.948822 38,000 288 463 0
2022-06-24 17:17:11 GMT 53.030960 8.959037 38,000 288 463 0
2022-06-24 17:17:08 GMT 53.027069 8.979645 38,000 288 463 0
2022-06-24 17:17:05 GMT 53.027069 8.979645 38,000 288 463 0
2022-06-24 17:17:02 GMT 53.025238 8.989334 38,000 288 463 0
2022-06-24 17:16:59 GMT 53.023682 8.997650 38,000 288 463 0
2022-06-24 17:16:57 GMT 53.022079 9.006042 38,000 288 463 64
2022-06-24 17:16:54 GMT 53.020203 9.015808 38,000 288 463 64
2022-06-24 17:16:51 GMT 53.018005 9.027481 38,000 288 463 64
2022-06-24 17:16:48 GMT 53.016434 9.035863 38,000 288 463 64
2022-06-24 17:16:46 GMT 53.015457 9.040885 38,000 288 463 0
2022-06-24 17:16:43 GMT 53.013428 9.051666 38,000 288 463 0
2022-06-24 17:16:40 GMT 53.011459 9.062042 38,000 288 463 0
2022-06-24 17:16:38 GMT 53.010288 9.068272 38,000 288 463 0
2022-06-24 17:16:36 GMT 53.008530 9.077530 38,000 288 463 0
2022-06-24 17:16:33 GMT 53.007156 9.084625 38,000 288 463 0
2022-06-24 17:16:30 GMT 53.004227 9.100037 38,000 288 463 0
2022-06-24 17:16:26 GMT 53.002701 9.108137 38,000 288 463 0
2022-06-24 17:16:23 GMT 53.000187 9.121320 38,000 288 463 0
2022-06-24 17:16:20 GMT 52.998596 9.129791 38,000 288 463 0
2022-06-24 17:16:17 GMT 52.996605 9.140233 38,000 288 464 0
2022-06-24 17:16:14 GMT 52.994431 9.151764 38,000 288 463 -64
2022-06-24 17:16:11 GMT 52.992737 9.160843 38,000 288 463 -64
2022-06-24 17:16:08 GMT 52.990585 9.172287 38,000 288 463 0
2022-06-24 17:16:05 GMT 52.988689 9.182216 38,000 288 463 0
2022-06-24 17:16:02 GMT 52.986919 9.191711 38,000 278 458 0
2022-06-24 17:15:59 GMT 52.985012 9.201913 38,000 288 463 64
2022-06-24 17:15:57 GMT 52.983719 9.208832 38,000 288 463 64
2022-06-24 17:15:54 GMT 52.981796 9.218979 38,000 288 463 64
2022-06-24 17:15:50 GMT 52.979050 9.233551 38,000 288 463 64
2022-06-24 17:15:47 GMT 52.977238 9.243190 38,000 288 463 0
2022-06-24 17:15:44 GMT 52.975655 9.251744 38,000 288 463 0
2022-06-24 17:15:41 GMT 52.973236 9.264457 38,000 288 463 0
2022-06-24 17:15:38 GMT 52.971130 9.275742 38,000 288 463 0
2022-06-24 17:15:35 GMT 52.970207 9.280701 38,000 288 464 0
2022-06-24 17:15:32 GMT 52.966297 9.301182 38,000 283 461 0
2022-06-24 17:15:29 GMT 52.966297 9.301182 38,000 288 463 0
2022-06-24 17:15:26 GMT 52.964390 9.311384 38,000 288 463 0
2022-06-24 17:15:23 GMT 52.960526 9.331630 38,000 288 463 0
2022-06-24 17:15:20 GMT 52.960526 9.331630 38,000 289 463 0
2022-06-24 17:15:17 GMT 52.957779 9.345677 38,000 289 463 0
2022-06-24 17:15:14 GMT 52.955978 9.355011 38,000 289 464 0
2022-06-24 17:15:11 GMT 52.953869 9.365609 38,000 289 464 0
2022-06-24 17:15:08 GMT 52.950714 9.381409 38,000 288 463 -64
2022-06-24 17:15:06 GMT 52.950714 9.381409 38,000 288 463 -64
2022-06-24 17:15:03 GMT 52.948841 9.391506 38,000 276 457 0
2022-06-24 17:15:00 GMT 52.946884 9.403748 38,000 283 461 0
2022-06-24 17:14:57 GMT 52.945999 9.410477 38,000 279 459 0
2022-06-24 17:14:54 GMT 52.944977 9.418971 38,000 278 458 0
2022-06-24 17:14:51 GMT 52.943527 9.433823 38,000 277 458 0
2022-06-24 17:14:48 GMT 52.942604 9.448399 38,000 275 457 0
2022-06-24 17:14:46 GMT 52.942604 9.448399 38,000 273 456 0
2022-06-24 17:14:43 GMT 52.942154 9.471588 38,000 270 455 0
2022-06-24 17:14:40 GMT 52.942291 9.480667 38,000 264 452 0
2022-06-24 17:14:37 GMT 52.942291 9.480667 38,000 259 450 -64
2022-06-24 17:14:34 GMT 52.942566 9.489441 38,000 262 451 0
2022-06-24 17:14:31 GMT 52.943256 9.501212 38,000 261 450 0
2022-06-24 17:14:28 GMT 52.944046 9.510786 38,000 261 450 0
2022-06-24 17:14:26 GMT 52.945118 9.520595 38,000 256 448 64
2022-06-24 17:14:23 GMT 52.948013 9.540024 38,000 252 447 0
2022-06-24 17:14:20 GMT 52.948013 9.540024 38,000 254 447 0
2022-06-24 17:14:17 GMT 52.949726 9.549709 38,000 253 446 0
2022-06-24 17:14:14 GMT 52.951077 9.556693 38,000 252 446 0
2022-06-24 17:14:11 GMT 52.953690 9.569702 38,000 252 446 -64
2022-06-24 17:14:08 GMT 52.954941 9.575684 38,000 252 446 -64
2022-06-24 17:14:05 GMT 52.956894 9.585266 38,000 252 446 0
2022-06-24 17:14:03 GMT 52.958942 9.595302 38,000 252 446 0
2022-06-24 17:14:00 GMT 52.960556 9.603119 38,000 252 446 0
2022-06-24 17:13:57 GMT 52.962715 9.613508 38,000 252 446 64
2022-06-24 17:13:54 GMT 52.964401 9.621811 38,000 252 446 0
2022-06-24 17:13:51 GMT 52.966904 9.634225 38,000 252 446 64
2022-06-24 17:13:48 GMT 52.968533 9.642229 38,000 252 446 64
2022-06-24 17:13:46 GMT 52.970161 9.650155 38,000 252 447 0
2022-06-24 17:13:43 GMT 52.972183 9.660263 38,000 252 447 0
2022-06-24 17:13:40 GMT 52.973419 9.666399 38,000 252 447 0
2022-06-24 17:13:37 GMT 52.975422 9.676287 38,000 252 447 0
2022-06-24 17:13:34 GMT 52.977379 9.685939 38,000 252 447 64
2022-06-24 17:13:31 GMT 52.980030 9.699201 38,000 252 447 64
2022-06-24 17:13:28 GMT 52.982117 9.709549 38,000 252 447 0
2022-06-24 17:13:25 GMT 52.985432 9.725961 38,000 252 447 0
2022-06-24 17:13:22 GMT 52.985432 9.725961 38,000 252 447 0
2022-06-24 17:13:19 GMT 52.987839 9.737701 38,000 252 447 0
2022-06-24 17:13:16 GMT 52.989201 9.744402 38,000 252 447 -128
2022-06-24 17:13:13 GMT 52.990952 9.752960 38,000 252 447 -128
2022-06-24 17:13:10 GMT 52.993530 9.765669 38,000 252 447 -64
2022-06-24 17:13:07 GMT 52.995533 9.775478 38,025 252 447 -64
2022-06-24 17:13:03 GMT 52.999695 9.796066 38,000 252 447 64
2022-06-24 17:12:58 GMT 53.001633 9.805533 38,000 252 446 0
2022-06-24 17:12:55 GMT 53.003216 9.813538 38,000 252 446 -64
2022-06-24 17:12:52 GMT 53.007683 9.835589 38,000 252 446 0
2022-06-24 17:12:49 GMT 53.007683 9.835589 38,000 252 446 128
2022-06-24 17:12:46 GMT 53.008896 9.841553 38,000 252 447 128
2022-06-24 17:12:43 GMT 53.010910 9.851456 38,000 252 446 0
2022-06-24 17:12:40 GMT 53.015270 9.873256 38,000 252 446 0
2022-06-24 17:12:37 GMT 53.015270 9.873256 38,000 252 446 0
2022-06-24 17:12:34 GMT 53.017639 9.885178 38,000 252 446 -64
2022-06-24 17:12:30 GMT 53.019150 9.892731 38,000 252 446 -64
2022-06-24 17:12:27 GMT 53.021027 9.901962 38,000 252 446 0
2022-06-24 17:12:25 GMT 53.022907 9.911473 38,000 252 446 64
2022-06-24 17:12:22 GMT 53.024780 9.920883 38,000 252 446 -64
2022-06-24 17:12:19 GMT 53.027233 9.933210 38,000 252 446 64
2022-06-24 17:12:16 GMT 53.028538 9.939566 38,000 252 445 0
2022-06-24 17:12:13 GMT 53.032543 9.959970 38,000 253 446 0
2022-06-24 17:12:10 GMT 53.032543 9.959970 38,000 253 446 64
2022-06-24 17:12:07 GMT 53.034218 9.968602 38,000 253 446 0
2022-06-24 17:12:05 GMT 53.035538 9.975357 38,000 253 446 0
2022-06-24 17:12:02 GMT 53.037708 9.986494 38,000 253 446 64
2022-06-24 17:11:58 GMT 53.039932 9.997940 38,000 253 446 -64
2022-06-24 17:11:56 GMT 53.041805 10.007368 38,000 253 446 0
2022-06-24 17:11:53 GMT 53.043549 10.016174 38,000 253 446 64
2022-06-24 17:11:50 GMT 53.047207 10.034834 38,000 252 446 -64
2022-06-24 17:11:47 GMT 53.047207 10.034834 38,000 252 446 -64
2022-06-24 17:11:44 GMT 53.049408 10.046005 38,000 252 446 0
2022-06-24 17:11:41 GMT 53.053070 10.064697 38,000 252 445 0
2022-06-24 17:11:38 GMT 53.053070 10.064697 38,000 252 445 0
2022-06-24 17:11:35 GMT 53.056332 10.081290 38,000 252 445 64
2022-06-24 17:11:32 GMT 53.058929 10.094681 38,000 252 445 -64
2022-06-24 17:11:29 GMT 53.058929 10.094681 38,000 252 445 -64
2022-06-24 17:11:26 GMT 53.060474 10.102478 38,000 252 445 -128
2022-06-24 17:11:23 GMT 53.062271 10.111694 38,000 252 445 64
2022-06-24 17:11:20 GMT 53.064102 10.121078 38,000 252 445 64
2022-06-24 17:11:16 GMT 53.068851 10.145246 38,000 252 446 -64
2022-06-24 17:11:13 GMT 53.068851 10.145246 38,000 252 446 -64
2022-06-24 17:11:10 GMT 53.071106 10.156708 38,000 252 446 -64
2022-06-24 17:11:07 GMT 53.072762 10.165022 38,000 252 446 -64
2022-06-24 17:11:02 GMT 53.075546 10.179138 38,000 252 446 0
2022-06-24 17:10:59 GMT 53.079529 10.199356 38,000 252 445 64
2022-06-24 17:10:56 GMT 53.079529 10.199356 38,000 252 445 64
2022-06-24 17:10:53 GMT 53.081955 10.211563 38,000 252 445 0
2022-06-24 17:10:50 GMT 53.083145 10.217678 38,000 252 445 0
2022-06-24 17:10:47 GMT 53.085331 10.228742 38,000 252 445 64
2022-06-24 17:10:45 GMT 53.087036 10.237579 38,000 252 445 128
2022-06-24 17:10:42 GMT 53.089195 10.248596 38,000 252 446 128
2022-06-24 17:10:39 GMT 53.090469 10.254974 38,000 252 446 64
2022-06-24 17:10:36 GMT 53.092209 10.263824 38,000 252 446 0
2022-06-24 17:10:33 GMT 53.094681 10.276337 38,000 252 446 64
2022-06-24 17:10:29 GMT 53.096924 10.287888 38,000 252 445 0
2022-06-24 17:10:26 GMT 53.098892 10.297799 38,000 252 446 0
2022-06-24 17:10:23 GMT 53.100975 10.308569 38,000 252 445 0
2022-06-24 17:10:20 GMT 53.102371 10.315534 38,000 252 446 -64
2022-06-24 17:10:17 GMT 53.104660 10.327227 38,000 252 446 64
2022-06-24 17:10:14 GMT 53.106281 10.335550 38,000 252 446 0
2022-06-24 17:10:12 GMT 53.109467 10.351789 38,000 252 446 0
2022-06-24 17:10:09 GMT 53.109467 10.351789 38,000 252 446 0
2022-06-24 17:10:06 GMT 53.111343 10.361128 38,000 252 446 0
2022-06-24 17:10:04 GMT 53.114986 10.379818 38,000 252 446 0
2022-06-24 17:10:01 GMT 53.116699 10.388358 38,000 252 446 0
2022-06-24 17:09:58 GMT 53.116699 10.388358 38,000 252 447 0
2022-06-24 17:09:55 GMT 53.118347 10.396676 38,000 252 446 0
2022-06-24 17:09:52 GMT 53.120945 10.409869 38,000 253 446 0
2022-06-24 17:09:49 GMT 53.122101 10.415824 38,000 253 447 -64
2022-06-24 17:09:46 GMT 53.124893 10.430106 38,000 253 446 64
2022-06-24 17:09:43 GMT 53.126297 10.437173 38,000 253 446 64
2022-06-24 17:09:40 GMT 53.128143 10.446742 38,000 253 447 0
2022-06-24 17:09:37 GMT 53.131744 10.465285 38,000 253 447 0
2022-06-24 17:09:35 GMT 53.131744 10.465285 38,000 253 447 -64
2022-06-24 17:09:32 GMT 53.133911 10.476327 38,000 253 447 -64
2022-06-24 17:09:29 GMT 53.134865 10.481199 38,000 253 447 -64
2022-06-24 17:09:26 GMT 53.137192 10.493317 38,000 253 447 -128
2022-06-24 17:09:23 GMT 53.139610 10.505757 38,000 253 447 0
2022-06-24 17:09:20 GMT 53.141190 10.513916 38,000 253 447 0
2022-06-24 17:09:17 GMT 53.142563 10.520979 38,000 253 447 0
2022-06-24 17:09:15 GMT 53.143803 10.527407 38,000 257 453 0
2022-06-24 17:09:12 GMT 53.146317 10.540362 38,000 253 448 0
2022-06-24 17:09:09 GMT 53.148239 10.550563 38,000 253 447 0
2022-06-24 17:09:05 GMT 53.150272 10.561012 38,000 253 448 64
2022-06-24 17:09:02 GMT 53.152180 10.571190 38,000 253 448 0
2022-06-24 17:08:59 GMT 53.153717 10.579349 38,000 253 448 0
2022-06-24 17:08:56 GMT 53.157394 10.598656 38,000 253 448 64
2022-06-24 17:08:54 GMT 53.158978 10.606896 38,000 253 448 64
2022-06-24 17:08:51 GMT 53.158978 10.606896 38,000 253 448 0
2022-06-24 17:08:48 GMT 53.160828 10.616638 38,000 253 448 64
2022-06-24 17:08:44 GMT 53.164581 10.636571 38,000 253 449 0
2022-06-24 17:08:40 GMT 53.166138 10.644810 38,000 253 449 64
2022-06-24 17:08:37 GMT 53.167603 10.652658 38,000 253 449 64
2022-06-24 17:08:34 GMT 53.169357 10.661828 38,000 253 449 64
2022-06-24 17:08:31 GMT 53.172058 10.676207 38,000 253 449 -64
2022-06-24 17:08:28 GMT 53.173317 10.682992 38,000 253 449 -64
2022-06-24 17:08:25 GMT 53.175552 10.695029 38,000 253 449 -64
2022-06-24 17:08:22 GMT 53.177444 10.705078 38,000 253 450 0
2022-06-24 17:08:19 GMT 53.178715 10.711751 38,000 253 450 0
2022-06-24 17:08:16 GMT 53.180740 10.722813 38,000 253 450 64
2022-06-24 17:08:13 GMT 53.182346 10.731300 38,000 253 450 64
2022-06-24 17:08:10 GMT 53.184769 10.744387 38,000 253 451 0
2022-06-24 17:08:07 GMT 53.186600 10.754203 38,000 253 451 -64
2022-06-24 17:08:04 GMT 53.190075 10.772983 38,000 253 450 -64
2022-06-24 17:08:01 GMT 53.190075 10.772983 38,000 254 451 -64
2022-06-24 17:07:58 GMT 53.191681 10.781982 38,000 254 451 0
2022-06-24 17:07:55 GMT 53.193287 10.790836 38,000 254 451 0
2022-06-24 17:07:53 GMT 53.194885 10.799717 38,000 255 452 -64
2022-06-24 17:07:50 GMT 53.196732 10.810708 38,000 257 453 0
2022-06-24 17:07:47 GMT 53.199600 10.830636 38,000 258 455 64
2022-06-24 17:07:44 GMT 53.200836 10.839504 38,000 258 455 64
2022-06-24 17:07:41 GMT 53.200836 10.839504 38,000 258 455 0
2022-06-24 17:07:38 GMT 53.202225 10.850211 38,000 258 455 64
2022-06-24 17:07:35 GMT 53.203354 10.858494 38,000 258 455 64
2022-06-24 17:07:33 GMT 53.204365 10.866125 38,000 258 455 0
2022-06-24 17:07:30 GMT 53.205715 10.876465 38,000 258 455 0
2022-06-24 17:07:27 GMT 53.207298 10.888582 38,000 259 456 0
2022-06-24 17:07:24 GMT 53.208435 10.897339 38,000 258 456 -64
2022-06-24 17:07:21 GMT 53.210091 10.909989 38,000 259 457 0
2022-06-24 17:07:18 GMT 53.212280 10.927865 38,000 271 465 0
2022-06-24 17:07:15 GMT 53.212280 10.927865 38,000 260 458 0
2022-06-24 17:07:13 GMT 53.213242 10.936105 38,000 262 459 0
2022-06-24 17:07:10 GMT 53.214294 10.946620 38,000 262 460 0
2022-06-24 17:07:07 GMT 53.215351 10.958216 38,000 263 460 0
2022-06-24 17:07:04 GMT 53.216003 10.966698 38,000 264 460 0
2022-06-24 17:07:01 GMT 53.216610 10.975907 38,000 266 461 128
2022-06-24 17:06:58 GMT 53.217316 10.988918 38,000 267 462 64
2022-06-24 17:06:55 GMT 53.217682 10.998365 38,000 267 462 64
2022-06-24 17:06:53 GMT 53.218140 11.015285 38,000 269 464 -64
2022-06-24 17:06:50 GMT 53.218140 11.015285 38,000 270 465 -64
2022-06-24 17:06:47 GMT 53.218239 11.026396 38,000 273 467 64
2022-06-24 17:06:44 GMT 53.218147 11.038513 38,000 273 467 64
2022-06-24 17:06:41 GMT 53.217636 11.061035 38,000 276 469 -64
2022-06-24 17:06:38 GMT 53.217216 11.070341 38,000 275 468 0
2022-06-24 17:06:35 GMT 53.217216 11.070341 38,000 275 468 0
2022-06-24 17:06:33 GMT 53.216331 11.086498 38,000 277 469 -64
2022-06-24 17:06:30 GMT 53.216331 11.086498 38,000 278 469 0
2022-06-24 17:06:27 GMT 53.215492 11.097645 38,000 280 471 0
2022-06-24 17:06:24 GMT 53.213196 11.121931 38,000 280 470 0
2022-06-24 17:06:21 GMT 53.212463 11.128523 38,000 281 472 0
2022-06-24 17:06:18 GMT 53.212463 11.128523 38,000 282 471 64
2022-06-24 17:06:15 GMT 53.210953 11.141785 38,000 282 471 0
2022-06-24 17:06:13 GMT 53.209812 11.151446 38,000 282 471 -128
2022-06-24 17:06:10 GMT 53.207565 11.170035 38,000 282 472 -128
2022-06-24 17:06:07 GMT 53.206413 11.179962 38,000 282 472 -128
2022-06-24 17:06:04 GMT 53.206413 11.179962 38,000 282 472 -128
2022-06-24 17:06:01 GMT 53.204830 11.192887 38,000 282 471 64
2022-06-24 17:05:58 GMT 53.203720 11.201974 38,000 282 471 64
2022-06-24 17:05:55 GMT 53.202457 11.212275 38,000 282 471 0
2022-06-24 17:05:53 GMT 53.201614 11.219395 38,000 282 471 0
2022-06-24 17:05:50 GMT 53.198730 11.243173 38,000 282 472 0
2022-06-24 17:05:47 GMT 53.198730 11.243173 38,000 282 471 -64
2022-06-24 17:05:44 GMT 53.196823 11.258805 38,000 282 471 0
2022-06-24 17:05:40 GMT 53.195568 11.269226 38,000 282 472 0
2022-06-24 17:05:37 GMT 53.194656 11.276681 38,000 282 472 0
2022-06-24 17:05:35 GMT 53.193741 11.283901 38,000 282 472 0
2022-06-24 17:05:31 GMT 53.191177 11.305167 38,000 282 472 64
2022-06-24 17:05:27 GMT 53.190121 11.314060 38,000 282 472 64
2022-06-24 17:05:24 GMT 53.187469 11.336113 38,000 282 472 64
2022-06-24 17:05:21 GMT 53.186371 11.345267 38,000 282 472 0
2022-06-24 17:05:18 GMT 53.186371 11.345267 38,000 282 472 0
2022-06-24 17:05:15 GMT 53.185047 11.355905 38,000 282 472 -64
2022-06-24 17:05:11 GMT 53.183372 11.369719 38,000 282 472 0
2022-06-24 17:05:07 GMT 53.181091 11.388379 38,000 282 472 0
2022-06-24 17:05:04 GMT 53.180393 11.394034 38,000 282 471 0
2022-06-24 17:05:01 GMT 53.178772 11.407340 38,000 282 471 0
2022-06-24 17:04:58 GMT 53.177738 11.416007 38,000 282 471 0
2022-06-24 17:04:55 GMT 53.176575 11.425377 38,000 282 471 64
2022-06-24 17:04:52 GMT 53.174789 11.439828 38,000 282 471 0
2022-06-24 17:04:49 GMT 53.173599 11.449559 38,000 282 471 0
2022-06-24 17:04:46 GMT 53.172710 11.456721 38,000 282 471 0
2022-06-24 17:04:43 GMT 53.171402 11.467372 38,000 282 471 -64
2022-06-24 17:04:40 GMT 53.169617 11.482047 38,000 282 471 0
2022-06-24 17:04:37 GMT 53.167496 11.498889 38,000 282 471 -64
2022-06-24 17:04:34 GMT 53.167496 11.498889 38,000 282 471 -64
2022-06-24 17:04:32 GMT 53.166752 11.504947 38,000 282 470 0
2022-06-24 17:04:30 GMT 53.165680 11.513349 38,000 282 471 -128
2022-06-24 17:04:27 GMT 53.164032 11.526542 38,000 282 470 -64
2022-06-24 17:04:24 GMT 53.162109 11.541530 38,000 282 470 64
2022-06-24 17:04:22 GMT 53.161259 11.548570 38,000 282 470 64
2022-06-24 17:04:20 GMT 53.161259 11.548570 38,000 282 470 0
2022-06-24 17:04:17 GMT 53.159271 11.564366 38,000 282 470 64
2022-06-24 17:04:14 GMT 53.158539 11.570173 38,000 282 470 128
2022-06-24 17:04:12 GMT 53.157673 11.577247 38,000 282 470 128
2022-06-24 17:04:10 GMT 53.156845 11.583827 38,000 282 470 0
2022-06-24 17:04:07 GMT 53.154976 11.599220 38,000 282 470 -128
2022-06-24 17:04:04 GMT 53.153320 11.612706 38,000 282 470 0
2022-06-24 17:04:02 GMT 53.152275 11.621112 38,000 282 470 0
2022-06-24 17:04:00 GMT 53.152275 11.621112 38,000 282 470 0
2022-06-24 17:03:57 GMT 53.150940 11.631775 38,000 282 470 0
2022-06-24 17:03:54 GMT 53.148926 11.647784 38,000 282 470 64
2022-06-24 17:03:52 GMT 53.148926 11.647784 38,000 282 470 0
2022-06-24 17:03:50 GMT 53.147873 11.656023 38,000 282 470 0
2022-06-24 17:03:47 GMT 53.146317 11.668501 38,000 282 470 0
2022-06-24 17:03:44 GMT 53.144943 11.679487 38,000 282 470 0
2022-06-24 17:03:41 GMT 53.143616 11.690261 38,000 282 471 64
2022-06-24 17:03:37 GMT 53.142498 11.698985 38,000 282 471 64
2022-06-24 17:03:34 GMT 53.139908 11.719509 38,000 282 471 -64
2022-06-24 17:03:29 GMT 53.138123 11.733641 38,000 282 471 0
2022-06-24 17:03:26 GMT 53.136978 11.742658 38,000 282 471 64
2022-06-24 17:03:23 GMT 53.135422 11.754743 38,000 282 470 0
2022-06-24 17:03:20 GMT 53.134140 11.765102 38,000 282 470 0
2022-06-24 17:03:17 GMT 53.133499 11.770203 38,000 282 469 0
2022-06-24 17:03:14 GMT 53.131886 11.782756 38,000 282 468 0
2022-06-24 17:03:12 GMT 53.131073 11.789429 38,000 282 469 0
2022-06-24 17:03:10 GMT 53.128952 11.806344 38,000 282 469 0
2022-06-24 17:03:07 GMT 53.128952 11.806344 38,000 282 469 0
2022-06-24 17:03:04 GMT 53.127228 11.819916 38,000 282 469 0
2022-06-24 17:03:02 GMT 53.126625 11.824843 38,000 282 468 0
2022-06-24 17:03:00 GMT 53.125694 11.832195 38,000 282 468 0
2022-06-24 17:02:57 GMT 53.124481 11.842006 38,000 282 468 0
2022-06-24 17:02:54 GMT 53.122925 11.854640 38,000 282 468 64
2022-06-24 17:02:51 GMT 53.121735 11.864136 38,000 282 468 0
2022-06-24 17:02:46 GMT 53.118244 11.891812 38,000 282 468 -64
2022-06-24 17:02:42 GMT 53.117386 11.898743 38,000 282 468 -64
2022-06-24 17:02:39 GMT 53.116013 11.909729 38,000 282 468 0
2022-06-24 17:02:36 GMT 53.115280 11.915379 38,000 282 469 64
2022-06-24 17:02:33 GMT 53.113544 11.929375 38,000 283 469 64
2022-06-24 17:02:30 GMT 53.112797 11.934949 38,000 282 469 64
2022-06-24 17:02:28 GMT 53.111435 11.945592 38,000 282 468 0
2022-06-24 17:02:25 GMT 53.110291 11.955087 38,000 281 468 -64
2022-06-24 17:02:22 GMT 53.107910 11.976552 38,000 280 468 -64
2022-06-24 17:02:19 GMT 53.107910 11.976552 38,000 278 467 -64
2022-06-24 17:02:16 GMT 53.106903 11.987575 38,000 278 467 -64
2022-06-24 17:02:13 GMT 53.105438 12.006487 38,000 276 466 -64
2022-06-24 17:02:11 GMT 53.105438 12.006487 38,000 275 465 0
2022-06-24 17:02:08 GMT 53.104889 12.015355 38,000 274 464 0
2022-06-24 17:02:05 GMT 53.104340 12.025242 38,000 274 465 0
2022-06-24 17:02:02 GMT 53.103836 12.039054 38,000 273 464 64
2022-06-24 17:01:59 GMT 53.103256 12.060646 38,000 273 464 64
2022-06-24 17:01:56 GMT 53.103256 12.060646 38,000 273 464 64
2022-06-24 17:01:52 GMT 53.102978 12.073490 38,000 273 464 64
2022-06-24 17:01:49 GMT 53.102737 12.082842 38,000 273 464 64
2022-06-24 17:01:46 GMT 53.102509 12.092416 38,000 273 464 64
2022-06-24 17:01:43 GMT 53.102230 12.104268 38,000 273 464 0
2022-06-24 17:01:41 GMT 53.102043 12.112346 38,000 273 464 64
2022-06-24 17:01:38 GMT 53.101810 12.122363 38,000 273 464 64
2022-06-24 17:01:35 GMT 53.101547 12.134713 38,000 273 464 64
2022-06-24 17:01:31 GMT 53.101135 12.150800 38,000 273 464 0
2022-06-24 17:01:28 GMT 53.100742 12.167682 38,000 273 464 0
2022-06-24 17:01:25 GMT 53.100742 12.167682 38,000 273 464 0
2022-06-24 17:01:22 GMT 53.100368 12.181495 38,000 273 464 0
2022-06-24 17:01:19 GMT 53.100136 12.191997 38,000 273 464 0
2022-06-24 17:01:16 GMT 53.099949 12.199510 38,000 273 464 64
2022-06-24 17:01:13 GMT 53.099258 12.224095 38,000 273 464 0
2022-06-24 17:01:10 GMT 53.099258 12.224095 38,000 273 464 0
2022-06-24 17:01:07 GMT 53.098938 12.236651 38,000 273 464 0
2022-06-24 17:01:03 GMT 53.098663 12.247480 38,000 273 464 64
2022-06-24 17:01:01 GMT 53.098507 12.252906 38,000 273 464 64
2022-06-24 17:00:59 GMT 53.098274 12.260661 38,000 273 464 -64
2022-06-24 17:00:56 GMT 53.097996 12.270921 38,000 273 464 -128
2022-06-24 17:00:53 GMT 53.097656 12.282872 38,000 273 464 -128
2022-06-24 17:00:51 GMT 53.097519 12.287502 38,000 273 464 -64
2022-06-24 17:00:46 GMT 53.096970 12.306571 38,000 273 464 64
2022-06-24 17:00:43 GMT 53.096645 12.318420 38,000 273 464 64
2022-06-24 17:00:41 GMT 53.096504 12.323671 38,000 273 464 64
2022-06-24 17:00:39 GMT 53.096146 12.335057 38,000 273 464 -64
2022-06-24 17:00:36 GMT 53.095806 12.345563 38,000 273 464 -64
2022-06-24 17:00:33 GMT 53.095551 12.354675 38,000 273 464 -64
2022-06-24 17:00:30 GMT 53.095139 12.368164 38,000 273 464 0
2022-06-24 17:00:27 GMT 53.094955 12.375488 38,000 273 464 0
2022-06-24 17:00:24 GMT 53.094551 12.388105 38,000 273 464 0
2022-06-24 17:00:21 GMT 53.094364 12.394932 38,000 273 464 0
2022-06-24 17:00:19 GMT 53.094177 12.401810 38,000 273 464 0
2022-06-24 17:00:17 GMT 53.093849 12.412432 38,000 273 464 64
2022-06-24 17:00:14 GMT 53.093582 12.422791 38,000 273 464 64
2022-06-24 17:00:11 GMT 53.093262 12.434158 38,000 273 464 64
2022-06-24 17:00:07 GMT 53.092941 12.446213 38,000 273 464 0
2022-06-24 17:00:04 GMT 53.092529 12.460175 38,000 273 464 0
2022-06-24 17:00:00 GMT 53.092255 12.470627 38,000 273 465 -64
2022-06-24 16:59:57 GMT 53.091843 12.485275 38,000 273 465 -64
2022-06-24 16:59:54 GMT 53.091522 12.496262 38,000 273 465 -64
2022-06-24 16:59:51 GMT 53.091385 12.501971 38,000 273 465 -64
2022-06-24 16:59:49 GMT 53.091156 12.510300 38,000 273 465 0
2022-06-24 16:59:47 GMT 53.090927 12.517624 38,000 273 465 0
2022-06-24 16:59:44 GMT 53.090637 12.527788 38,000 273 465 64
2022-06-24 16:59:41 GMT 53.090359 12.538304 38,000 273 465 64
2022-06-24 16:59:38 GMT 53.090057 12.549210 38,000 273 465 64
2022-06-24 16:59:36 GMT 53.089569 12.566398 38,000 273 465 0
2022-06-24 16:59:33 GMT 53.089569 12.566398 38,000 273 465 -64
2022-06-24 16:59:30 GMT 53.089233 12.578354 38,000 273 465 0
2022-06-24 16:59:27 GMT 53.088963 12.587272 38,000 273 465 -64
2022-06-24 16:59:24 GMT 53.088318 12.609406 38,000 273 465 -64
2022-06-24 16:59:21 GMT 53.088318 12.609406 38,000 273 465 -64
2022-06-24 16:59:19 GMT 53.088089 12.616577 38,000 273 465 0
2022-06-24 16:59:17 GMT 53.087814 12.626266 38,000 273 465 0
2022-06-24 16:59:14 GMT 53.087566 12.635690 38,000 273 465 0
2022-06-24 16:59:11 GMT 53.087242 12.645813 38,000 273 465 128
2022-06-24 16:59:09 GMT 53.087036 12.653427 38,000 273 465 128
2022-06-24 16:59:07 GMT 53.086823 12.660331 38,000 273 465 0
2022-06-24 16:59:04 GMT 53.086262 12.681676 38,000 273 465 -64
2022-06-24 16:59:01 GMT 53.086262 12.681676 38,000 273 465 -64
2022-06-24 16:58:59 GMT 53.086079 12.688424 38,000 273 465 -64
2022-06-24 16:58:57 GMT 53.085892 12.695722 38,000 273 465 0
2022-06-24 16:58:54 GMT 53.085480 12.708893 38,000 273 465 0
2022-06-24 16:58:51 GMT 53.085239 12.718009 38,000 273 465 0
2022-06-24 16:58:48 GMT 53.084866 12.729858 38,000 273 464 -64
2022-06-24 16:58:45 GMT 53.084541 12.740845 38,000 273 464 0
2022-06-24 16:58:42 GMT 53.084263 12.750105 38,000 273 464 0
2022-06-24 16:58:40 GMT 53.084061 12.756805 38,000 273 464 0
2022-06-24 16:58:38 GMT 53.083923 12.762070 38,000 273 464 0
2022-06-24 16:58:36 GMT 53.083702 12.768938 38,000 273 464 -64
2022-06-24 16:58:33 GMT 53.083332 12.781180 38,000 273 463 0
2022-06-24 16:58:30 GMT 53.082958 12.791774 38,000 273 463 0
2022-06-24 16:58:27 GMT 53.082539 12.804879 38,000 274 463 0
2022-06-24 16:58:24 GMT 53.081936 12.824969 38,000 274 463 -64
2022-06-24 16:58:21 GMT 53.081936 12.824969 38,000 274 463 0
2022-06-24 16:58:18 GMT 53.081223 12.845764 38,000 274 463 64
2022-06-24 16:58:15 GMT 53.081223 12.845764 38,000 274 463 64
2022-06-24 16:58:12 GMT 53.080673 12.862549 38,000 273 462 0
2022-06-24 16:58:09 GMT 53.080536 12.867279 38,000 273 462 0
2022-06-24 16:58:07 GMT 53.080257 12.876369 38,000 273 462 -64
2022-06-24 16:58:03 GMT 53.079933 12.886571 38,000 274 462 0
2022-06-24 16:58:00 GMT 53.079559 12.898812 38,000 273 462 0
2022-06-24 16:57:57 GMT 53.079254 12.908096 38,000 273 461 0
2022-06-24 16:57:53 GMT 53.078522 12.931595 38,000 273 462 0
2022-06-24 16:57:50 GMT 53.078255 12.939933 38,000 273 461 0
2022-06-24 16:57:48 GMT 53.078255 12.939933 38,000 273 461 0
2022-06-24 16:57:45 GMT 53.077881 12.951965 38,000 274 461 64
2022-06-24 16:57:41 GMT 53.077515 12.963181 38,000 274 461 64
2022-06-24 16:57:39 GMT 53.077141 12.973755 38,000 274 461 0
2022-06-24 16:57:36 GMT 53.076721 12.986625 38,000 274 461 0
2022-06-24 16:57:33 GMT 53.076462 12.993546 38,000 274 461 0
2022-06-24 16:57:30 GMT 53.076115 13.004595 38,000 274 461 0
2022-06-24 16:57:28 GMT 53.075928 13.009696 38,000 274 460 0
2022-06-24 16:57:26 GMT 53.075638 13.018570 38,000 274 460 -64
2022-06-24 16:57:23 GMT 53.075325 13.027509 38,000 274 460 64
2022-06-24 16:57:20 GMT 53.074860 13.040065 38,000 274 460 64
2022-06-24 16:57:18 GMT 53.074677 13.045425 38,000 274 460 64
2022-06-24 16:57:16 GMT 53.074402 13.052826 38,000 274 459 0
2022-06-24 16:57:13 GMT 53.073990 13.065109 38,000 274 460 0
2022-06-24 16:57:10 GMT 53.073578 13.075714 38,000 274 459 0
2022-06-24 16:57:07 GMT 53.072754 13.099060 38,000 274 459 64
2022-06-24 16:57:04 GMT 53.072754 13.099060 38,000 274 459 0
2022-06-24 16:57:01 GMT 53.072525 13.104706 38,000 274 459 0
2022-06-24 16:56:59 GMT 53.072250 13.113174 38,000 274 458 0
2022-06-24 16:56:56 GMT 53.071701 13.127670 38,000 274 458 0
2022-06-24 16:56:53 GMT 53.071381 13.137360 38,000 274 458 0
2022-06-24 16:56:50 GMT 53.071152 13.144073 38,000 274 458 0
2022-06-24 16:56:48 GMT 53.070877 13.151245 38,000 274 458 -64
2022-06-24 16:56:44 GMT 53.070099 13.172684 38,000 274 457 0
2022-06-24 16:56:41 GMT 53.069962 13.176422 38,000 274 457 0
2022-06-24 16:56:39 GMT 53.069733 13.182526 38,000 274 457 0
2022-06-24 16:56:37 GMT 53.069366 13.192596 38,000 274 457 -64
2022-06-24 16:56:34 GMT 53.069134 13.199916 38,000 274 457 64
2022-06-24 16:56:31 GMT 53.068680 13.211899 38,000 274 457 64
2022-06-24 16:56:28 GMT 53.068359 13.222046 38,000 274 457 64
2022-06-24 16:56:26 GMT 53.068108 13.228324 38,000 274 457 0
2022-06-24 16:56:23 GMT 53.067673 13.241272 38,000 274 457 -64
2022-06-24 16:56:20 GMT 53.067364 13.250532 38,000 274 457 -64
2022-06-24 16:56:18 GMT 53.067215 13.255997 38,000 274 457 -64
2022-06-24 16:56:16 GMT 53.066990 13.261832 38,000 274 457 -64
2022-06-24 16:56:13 GMT 53.066574 13.274536 38,000 274 457 0
2022-06-24 16:56:10 GMT 53.066116 13.288345 38,000 274 457 0
2022-06-24 16:56:07 GMT 53.065750 13.298721 38,000 274 457 -64
2022-06-24 16:56:04 GMT 53.065521 13.306046 38,000 274 457 0
2022-06-24 16:56:01 GMT 53.065155 13.317032 38,000 274 457 -64
2022-06-24 16:55:59 GMT 53.064987 13.322257 38,000 274 457 -64
2022-06-24 16:55:57 GMT 53.064789 13.329010 38,000 274 457 -64
2022-06-24 16:55:54 GMT 53.063965 13.352783 38,000 274 457 0
2022-06-24 16:55:51 GMT 53.063965 13.352783 38,000 274 457 0
2022-06-24 16:55:48 GMT 53.063599 13.364105 38,000 274 457 0
2022-06-24 16:55:45 GMT 53.063187 13.375854 38,000 274 456 0
2022-06-24 16:55:42 GMT 53.062912 13.384247 38,000 274 456 0
2022-06-24 16:55:39 GMT 53.062614 13.393511 38,000 274 456 -64
2022-06-24 16:55:37 GMT 53.062042 13.410416 38,000 274 456 -64
2022-06-24 16:55:34 GMT 53.062042 13.410416 38,000 274 456 0
2022-06-24 16:55:31 GMT 53.061630 13.421707 38,000 274 456 64
2022-06-24 16:55:29 GMT 53.061405 13.428196 38,000 274 456 64
2022-06-24 16:55:27 GMT 53.061077 13.438084 38,000 274 456 0
2022-06-24 16:55:24 GMT 53.060394 13.456345 38,000 274 456 0
2022-06-24 16:55:21 GMT 53.060394 13.456345 38,000 274 456 0
2022-06-24 16:55:19 GMT 53.059891 13.471451 38,000 274 456 0
2022-06-24 16:55:14 GMT 53.059067 13.492966 38,000 274 456 0
2022-06-24 16:55:11 GMT 53.059067 13.492966 38,000 274 456 0
2022-06-24 16:55:09 GMT 53.058891 13.498038 38,000 274 456 0
2022-06-24 16:55:06 GMT 53.058517 13.508397 38,000 274 456 0
2022-06-24 16:55:02 GMT 53.057602 13.534088 38,000 274 456 0
2022-06-24 16:54:59 GMT 53.057602 13.534088 38,000 274 456 64
2022-06-24 16:54:56 GMT 53.057308 13.542062 38,000 274 456 0
2022-06-24 16:54:52 GMT 53.056686 13.559647 38,000 274 456 -64
2022-06-24 16:54:49 GMT 53.056332 13.569135 38,000 274 456 -64
2022-06-24 16:54:46 GMT 53.056004 13.578238 38,000 274 455 0
2022-06-24 16:54:43 GMT 53.055584 13.590323 38,000 274 455 0
2022-06-24 16:54:39 GMT 53.055119 13.603036 38,000 274 455 64
2022-06-24 16:54:35 GMT 53.054489 13.618927 38,000 274 455 64
2022-06-24 16:54:32 GMT 53.054234 13.625401 38,000 274 455 64
2022-06-24 16:54:29 GMT 53.053802 13.637085 38,000 274 455 64
2022-06-24 16:54:26 GMT 53.053303 13.650434 38,000 274 455 64
2022-06-24 16:54:22 GMT 53.052933 13.660431 38,000 274 455 0
2022-06-24 16:54:19 GMT 53.052513 13.671544 38,000 274 455 0
2022-06-24 16:54:17 GMT 53.052139 13.681117 38,000 274 455 0
2022-06-24 16:54:14 GMT 53.051441 13.700265 38,000 274 455 0
2022-06-24 16:54:11 GMT 53.051102 13.710175 38,000 274 455 -64
2022-06-24 16:54:08 GMT 53.051102 13.710175 38,000 274 455 0
2022-06-24 16:54:06 GMT 53.050461 13.726654 38,000 274 455 -64
2022-06-24 16:54:03 GMT 53.050461 13.726654 38,000 274 454 -64
2022-06-24 16:54:00 GMT 53.049999 13.738796 38,000 274 454 -64
2022-06-24 16:53:58 GMT 53.049774 13.744278 38,000 274 454 -64
2022-06-24 16:53:56 GMT 53.049114 13.762338 38,000 274 454 0
2022-06-24 16:53:53 GMT 53.048695 13.772618 38,000 274 454 64
2022-06-24 16:53:50 GMT 53.048492 13.778305 38,000 274 454 64
2022-06-24 16:53:46 GMT 53.048126 13.786926 38,000 274 454 0
2022-06-24 16:53:43 GMT 53.047714 13.797150 38,000 274 454 -64
2022-06-24 16:53:40 GMT 53.047302 13.807449 38,000 274 454 -64
2022-06-24 16:53:38 GMT 53.047020 13.814680 38,000 275 455 0
2022-06-24 16:53:36 GMT 53.046181 13.835161 38,000 274 455 0
2022-06-24 16:53:33 GMT 53.046181 13.835161 38,000 275 453 0
2022-06-24 16:53:30 GMT 53.045883 13.842773 38,000 275 455 0
2022-06-24 16:53:28 GMT 53.045578 13.849601 38,000 275 455 0
2022-06-24 16:53:25 GMT 53.045158 13.860116 38,000 274 455 0
2022-06-24 16:53:23 GMT 53.044365 13.878479 38,000 275 454 0
2022-06-24 16:53:20 GMT 53.044365 13.878479 38,000 275 454 0
2022-06-24 16:53:18 GMT 53.044086 13.885620 38,000 275 454 0
2022-06-24 16:53:15 GMT 53.043732 13.893814 38,000 275 454 0
2022-06-24 16:53:12 GMT 53.042770 13.916321 38,000 275 453 0
2022-06-24 16:53:09 GMT 53.042770 13.916321 38,000 275 454 0
2022-06-24 16:53:06 GMT 53.041855 13.938041 38,000 275 454 0
2022-06-24 16:53:03 GMT 53.041855 13.938041 38,000 275 453 0
2022-06-24 16:53:00 GMT 53.041443 13.947067 38,000 275 453 0
2022-06-24 16:52:57 GMT 53.041061 13.956953 38,000 274 453 64
2022-06-24 16:52:54 GMT 53.040436 13.971100 38,000 274 453 64
2022-06-24 16:52:50 GMT 53.039703 13.989258 38,000 274 453 64
2022-06-24 16:52:46 GMT 53.039570 13.992737 38,000 274 453 64
2022-06-24 16:52:43 GMT 53.039062 14.004822 38,000 274 453 0
2022-06-24 16:52:40 GMT 53.038548 14.017613 38,000 274 453 -128
2022-06-24 16:52:37 GMT 53.038284 14.024124 38,000 274 453 -128
2022-06-24 16:52:35 GMT 53.037991 14.030954 38,000 274 453 -64
2022-06-24 16:52:33 GMT 53.037106 14.052455 38,000 275 453 0
2022-06-24 16:52:30 GMT 53.037106 14.052455 38,000 275 453 0
2022-06-24 16:52:27 GMT 53.036682 14.062119 38,000 275 453 0
2022-06-24 16:52:25 GMT 53.036453 14.066816 38,000 275 453 0
2022-06-24 16:52:23 GMT 53.035950 14.078369 38,000 275 453 0
2022-06-24 16:52:20 GMT 53.035522 14.088475 38,000 275 453 0
2022-06-24 16:52:17 GMT 53.035217 14.095154 38,000 275 453 0
2022-06-24 16:52:15 GMT 53.035007 14.100560 38,000 275 453 0
2022-06-24 16:52:12 GMT 53.034485 14.112015 38,000 275 453 0
2022-06-24 16:52:09 GMT 53.034027 14.122696 38,000 275 452 0
2022-06-24 16:52:07 GMT 53.033661 14.130380 38,000 275 452 64
2022-06-24 16:52:04 GMT 53.033112 14.143372 38,000 275 452 64
2022-06-24 16:52:01 GMT 53.032837 14.150009 38,000 275 452 64
2022-06-24 16:51:58 GMT 53.032288 14.162445 38,000 275 452 64
2022-06-24 16:51:56 GMT 53.031471 14.181231 38,000 275 452 64
2022-06-24 16:51:53 GMT 53.031471 14.181231 38,000 274 452 0
2022-06-24 16:51:50 GMT 53.030594 14.201508 38,000 274 452 0
2022-06-24 16:51:47 GMT 53.030594 14.201508 38,000 274 452 0
2022-06-24 16:51:44 GMT 53.030182 14.211884 38,000 275 452 0
2022-06-24 16:51:41 GMT 53.029423 14.229806 38,000 275 452 -64
2022-06-24 16:51:38 GMT 53.029423 14.229806 38,000 275 452 -64
2022-06-24 16:51:36 GMT 53.029003 14.239223 38,000 275 452 -64
2022-06-24 16:51:33 GMT 53.028580 14.249573 38,000 275 451 -64
2022-06-24 16:51:30 GMT 53.028072 14.261039 38,000 275 451 0
2022-06-24 16:51:27 GMT 53.027802 14.266891 38,000 275 451 0
2022-06-24 16:51:24 GMT 53.027283 14.279088 38,000 275 451 0
2022-06-24 16:51:20 GMT 53.026794 14.291611 38,000 275 451 64
2022-06-24 16:51:17 GMT 53.026382 14.301224 38,000 275 451 64
2022-06-24 16:51:14 GMT 53.025372 14.324995 38,000 275 451 -64
2022-06-24 16:51:11 GMT 53.025372 14.324995 38,000 275 451 -64
2022-06-24 16:51:08 GMT 53.025047 14.332685 38,000 275 451 -64
2022-06-24 16:51:06 GMT 53.024734 14.339828 38,000 275 451 0
2022-06-24 16:51:03 GMT 53.024208 14.352068 38,000 275 450 0
2022-06-24 16:51:00 GMT 53.023884 14.359366 38,000 275 450 64
2022-06-24 16:50:57 GMT 53.023132 14.376907 38,000 275 451 0
2022-06-24 16:50:55 GMT 53.023132 14.376907 38,000 275 450 64
2022-06-24 16:50:52 GMT 53.022442 14.391776 38,000 275 450 0
2022-06-24 16:50:49 GMT 53.022034 14.400635 38,000 275 450 0
2022-06-24 16:50:47 GMT 53.021622 14.409790 38,000 275 450 0
2022-06-24 16:50:43 GMT 53.021229 14.418928 38,000 275 451 0
2022-06-24 16:50:40 GMT 53.020626 14.431719 38,000 275 451 0
2022-06-24 16:50:37 GMT 53.020294 14.438629 38,000 275 451 0
2022-06-24 16:50:34 GMT 53.019321 14.461068 38,000 275 451 0
2022-06-24 16:50:31 GMT 53.019321 14.461068 38,000 275 451 0
2022-06-24 16:50:28 GMT 53.018250 14.483826 38,000 275 451 0
2022-06-24 16:50:24 GMT 53.018250 14.483826 38,000 275 451 0
2022-06-24 16:50:21 GMT 53.017181 14.507751 38,000 275 451 0
2022-06-24 16:50:18 GMT 53.017181 14.507751 38,000 275 451 0
2022-06-24 16:50:15 GMT 53.016064 14.532166 38,000 275 451 64
2022-06-24 16:50:11 GMT 53.016064 14.532166 38,000 275 451 64
2022-06-24 16:50:08 GMT 53.015457 14.545271 38,000 275 452 64
2022-06-24 16:50:03 GMT 53.014992 14.555865 38,000 275 452 -64
2022-06-24 16:50:00 GMT 53.014481 14.566803 38,000 275 452 0
2022-06-24 16:49:57 GMT 53.014023 14.577103 38,000 275 452 64
2022-06-24 16:49:53 GMT 53.013268 14.594003 38,000 275 452 64
2022-06-24 16:49:50 GMT 53.012897 14.601850 38,000 275 452 0
2022-06-24 16:49:47 GMT 53.012466 14.610672 38,000 275 452 0
2022-06-24 16:49:44 GMT 53.011826 14.624922 38,000 275 452 -64
2022-06-24 16:49:40 GMT 53.011314 14.635437 38,000 275 452 0
2022-06-24 16:49:37 GMT 53.010864 14.645233 38,000 275 452 0
2022-06-24 16:49:35 GMT 53.010452 14.653778 38,000 275 452 0
2022-06-24 16:49:32 GMT 53.010010 14.663374 38,000 275 452 0
2022-06-24 16:49:29 GMT 53.009354 14.676819 38,000 275 452 0
2022-06-24 16:49:26 GMT 53.009125 14.682364 38,000 275 452 0
2022-06-24 16:49:23 GMT 53.008530 14.694748 38,000 275 453 0
2022-06-24 16:49:20 GMT 53.007980 14.706268 38,000 275 453 0
2022-06-24 16:49:17 GMT 53.007217 14.722386 38,000 275 453 0
2022-06-24 16:49:13 GMT 53.006844 14.729527 38,000 275 453 0
2022-06-24 16:49:10 GMT 53.006145 14.743495 38,000 275 453 0
2022-06-24 16:49:07 GMT 53.005821 14.750401 38,000 275 453 -64
2022-06-24 16:49:05 GMT 53.005463 14.757614 38,000 275 453 -64
2022-06-24 16:49:02 GMT 53.004936 14.768685 38,000 275 453 0
2022-06-24 16:48:59 GMT 53.004456 14.778976 38,000 275 453 0
2022-06-24 16:48:56 GMT 53.003864 14.790737 38,000 275 453 0
2022-06-24 16:48:53 GMT 53.003353 14.801723 38,000 275 453 0
2022-06-24 16:48:50 GMT 53.002899 14.810638 38,000 275 453 0
2022-06-24 16:48:46 GMT 53.002331 14.822440 38,000 275 453 0
2022-06-24 16:48:42 GMT 53.001526 14.839325 38,000 275 453 0
2022-06-24 16:48:39 GMT 53.001026 14.849513 38,000 275 453 0
2022-06-24 16:48:36 GMT 53.000610 14.858322 38,000 275 453 0
2022-06-24 16:48:33 GMT 53.000141 14.868504 38,000 275 453 0
2022-06-24 16:48:30 GMT 52.999695 14.877777 38,000 275 453 0
2022-06-24 16:48:27 GMT 52.999146 14.889603 38,000 275 453 0
2022-06-24 16:48:24 GMT 52.998642 14.899750 38,000 275 453 0
2022-06-24 16:48:21 GMT 52.998138 14.910095 38,000 275 453 64
2022-06-24 16:48:19 GMT 52.997910 14.915161 38,000 275 453 64
2022-06-24 16:48:16 GMT 52.997269 14.928436 38,000 275 453 0
2022-06-24 16:48:13 GMT 52.996811 14.938126 38,000 275 453 64
2022-06-24 16:48:10 GMT 52.996323 14.947841 38,000 275 453 0
2022-06-24 16:48:07 GMT 52.995758 14.959488 38,000 275 453 -64
2022-06-24 16:48:05 GMT 52.994972 14.976563 38,000 275 453 0
2022-06-24 16:48:02 GMT 52.994972 14.976563 38,000 275 453 -64
2022-06-24 16:47:59 GMT 52.994461 14.987313 38,000 275 453 64
2022-06-24 16:47:56 GMT 52.993530 15.006539 38,000 275 453 64
2022-06-24 16:47:53 GMT 52.993530 15.006539 38,000 275 453 0
2022-06-24 16:47:50 GMT 52.992554 15.027313 38,000 275 453 0
2022-06-24 16:47:47 GMT 52.992554 15.027313 38,000 275 453 0
2022-06-24 16:47:44 GMT 52.991482 15.049700 38,000 275 453 64
2022-06-24 16:47:40 GMT 52.991482 15.049700 38,000 275 453 -64
2022-06-24 16:47:37 GMT 52.990879 15.062727 38,000 275 453 0
2022-06-24 16:47:34 GMT 52.990448 15.072174 38,000 275 453 -64
2022-06-24 16:47:32 GMT 52.990219 15.076828 38,000 275 453 0
2022-06-24 16:47:29 GMT 52.988983 15.102921 38,000 275 453 64
2022-06-24 16:47:26 GMT 52.988644 15.110282 38,000 275 453 64
2022-06-24 16:47:23 GMT 52.988644 15.110282 38,000 275 453 64
2022-06-24 16:47:20 GMT 52.988132 15.120719 38,000 275 452 256
2022-06-24 16:47:17 GMT 52.986828 15.147008 38,000 275 453 0
2022-06-24 16:47:13 GMT 52.986828 15.147008 38,000 275 453 0
2022-06-24 16:47:10 GMT 52.986408 15.155404 38,000 275 453 0
2022-06-24 16:47:06 GMT 52.985733 15.168915 38,000 275 453 0
2022-06-24 16:47:03 GMT 52.985153 15.179731 38,000 275 453 0
2022-06-24 16:46:59 GMT 52.984543 15.191040 38,000 276 455 -64
2022-06-24 16:46:56 GMT 52.983940 15.202881 38,000 275 453 -64
2022-06-24 16:46:51 GMT 52.983055 15.219753 38,000 275 453 -64
2022-06-24 16:46:48 GMT 52.982346 15.233459 38,000 276 454 0
2022-06-24 16:46:45 GMT 52.981987 15.240862 38,000 276 454 0
2022-06-24 16:46:41 GMT 52.980591 15.266131 38,000 276 454 -64
2022-06-24 16:46:38 GMT 52.980591 15.266131 38,000 276 454 -64
2022-06-24 16:46:35 GMT 52.980194 15.273590 38,000 276 454 0
2022-06-24 16:46:31 GMT 52.979240 15.290301 38,000 276 454 0
2022-06-24 16:46:28 GMT 52.978683 15.300446 38,000 276 455 0
2022-06-24 16:46:25 GMT 52.977539 15.320969 38,000 276 455 0
2022-06-24 16:46:22 GMT 52.976944 15.330734 38,000 276 455 0
2022-06-24 16:46:19 GMT 52.976944 15.330734 38,000 276 456 0
2022-06-24 16:46:16 GMT 52.976212 15.343704 37,000 276 455 64
2022-06-24 16:46:14 GMT 52.976028 15.346566 38,000 276 455 64
2022-06-24 16:46:11 GMT 52.975479 15.356674 38,000 276 455 64
2022-06-24 16:46:08 GMT 52.974678 15.371050 38,000 276 455 64
2022-06-24 16:46:05 GMT 52.974167 15.379996 38,000 276 455 -64
2022-06-24 16:46:02 GMT 52.973373 15.394287 38,000 276 455 -64
2022-06-24 16:45:59 GMT 52.972595 15.408859 38,000 276 455 -64
2022-06-24 16:45:56 GMT 52.972595 15.408859 38,000 276 455 0
2022-06-24 16:45:53 GMT 52.972046 15.419617 38,000 276 454 0
2022-06-24 16:45:50 GMT 52.971420 15.431240 38,000 276 454 64
2022-06-24 16:45:47 GMT 52.970856 15.441818 38,000 276 454 0
2022-06-24 16:45:44 GMT 52.970161 15.454860 38,000 276 454 0
2022-06-24 16:45:40 GMT 52.969620 15.464249 38,000 276 454 64
2022-06-24 16:45:37 GMT 52.968952 15.477304 38,000 276 454 64
2022-06-24 16:45:34 GMT 52.968391 15.487270 38,000 276 454 0
2022-06-24 16:45:31 GMT 52.967697 15.501099 38,000 276 454 0
2022-06-24 16:45:27 GMT 52.967091 15.511989 38,000 276 453 -64
2022-06-24 16:45:24 GMT 52.966599 15.521469 38,000 276 453 -64
2022-06-24 16:45:21 GMT 52.965866 15.534897 38,000 276 453 64
2022-06-24 16:45:17 GMT 52.964668 15.556170 38,000 276 453 64
2022-06-24 16:45:14 GMT 52.964668 15.556170 38,000 276 453 64
2022-06-24 16:45:11 GMT 52.963272 15.581517 38,000 276 453 -64
2022-06-24 16:45:08 GMT 52.963272 15.581517 38,000 276 453 -64
2022-06-24 16:45:05 GMT 52.962948 15.586853 38,000 276 453 -64
2022-06-24 16:45:03 GMT 52.962387 15.597153 38,000 276 452 -64
2022-06-24 16:45:00 GMT 52.961876 15.607021 38,000 276 452 0
2022-06-24 16:44:57 GMT 52.961365 15.615731 38,000 276 452 0
2022-06-24 16:44:53 GMT 52.960785 15.626831 38,000 276 452 0
2022-06-24 16:44:50 GMT 52.960201 15.637312 38,000 276 452 0
2022-06-24 16:44:47 GMT 52.958725 15.664062 38,000 276 452 0
2022-06-24 16:44:43 GMT 52.958725 15.664062 38,000 276 452 0
2022-06-24 16:44:40 GMT 52.958313 15.671387 38,000 276 451 0
2022-06-24 16:44:37 GMT 52.957764 15.681534 38,000 276 451 0
2022-06-24 16:44:34 GMT 52.956985 15.695114 38,000 276 451 64
2022-06-24 16:44:31 GMT 52.956524 15.703544 38,000 276 451 64
2022-06-24 16:44:28 GMT 52.955776 15.716649 38,000 276 451 64
2022-06-24 16:44:24 GMT 52.955078 15.728969 38,000 276 451 0
2022-06-24 16:44:21 GMT 52.954426 15.740583 38,000 276 451 0
2022-06-24 16:44:17 GMT 52.953232 15.762405 38,000 276 450 0
2022-06-24 16:44:14 GMT 52.953232 15.762405 38,000 276 450 0
2022-06-24 16:44:10 GMT 52.952427 15.776289 38,000 276 450 0
2022-06-24 16:44:06 GMT 52.951031 15.801479 38,000 276 450 0
2022-06-24 16:44:03 GMT 52.951031 15.801479 38,000 276 450 0
2022-06-24 16:43:59 GMT 52.949799 15.823288 38,000 276 450 0
2022-06-24 16:43:56 GMT 52.949799 15.823288 38,000 276 449 0
2022-06-24 16:43:53 GMT 52.949028 15.836949 38,000 276 449 0
2022-06-24 16:43:50 GMT 52.948563 15.845110 38,000 276 449 0
2022-06-24 16:43:47 GMT 52.948051 15.854056 38,000 276 449 0
2022-06-24 16:43:44 GMT 52.947304 15.866612 38,000 276 449 0
2022-06-24 16:43:40 GMT 52.946457 15.882034 38,000 276 449 0
2022-06-24 16:43:37 GMT 52.945862 15.892351 38,000 276 449 0
2022-06-24 16:43:34 GMT 52.945210 15.903730 38,000 276 449 0
2022-06-24 16:43:30 GMT 52.944607 15.914324 38,000 276 450 0
2022-06-24 16:43:26 GMT 52.943722 15.929705 38,000 276 450 0
2022-06-24 16:43:22 GMT 52.943115 15.939907 38,000 276 448 0
2022-06-24 16:43:19 GMT 52.942558 15.950265 38,000 276 448 0
2022-06-24 16:43:16 GMT 52.941345 15.971375 38,000 276 448 0
2022-06-24 16:43:13 GMT 52.941345 15.971375 38,000 276 448 0
2022-06-24 16:43:10 GMT 52.940556 15.984637 38,000 276 448 0
2022-06-24 16:43:06 GMT 52.939812 15.998369 38,000 276 448 0
2022-06-24 16:43:03 GMT 52.939297 16.006687 38,000 276 449 0
2022-06-24 16:43:00 GMT 52.938831 16.014927 38,000 276 449 -64
2022-06-24 16:42:57 GMT 52.938126 16.027527 38,000 276 449 0
2022-06-24 16:42:54 GMT 52.937622 16.036224 38,000 276 449 64
2022-06-24 16:42:51 GMT 52.936272 16.058638 38,000 276 449 0
2022-06-24 16:42:48 GMT 52.935574 16.071194 38,000 276 449 0
2022-06-24 16:42:44 GMT 52.935574 16.071194 38,000 276 449 0
2022-06-24 16:42:41 GMT 52.934364 16.091518 38,000 276 448 0
2022-06-24 16:42:35 GMT 52.933640 16.103973 38,000 276 448 0
2022-06-24 16:42:31 GMT 52.932873 16.116550 38,000 276 447 0
2022-06-24 16:42:28 GMT 52.932449 16.123657 38,000 276 448 0
2022-06-24 16:42:25 GMT 52.930824 16.150452 38,000 276 448 -64
2022-06-24 16:42:22 GMT 52.930546 16.155396 38,000 276 448 0
2022-06-24 16:42:19 GMT 52.930546 16.155396 38,000 276 448 0
2022-06-24 16:42:16 GMT 52.929893 16.166145 38,000 276 448 0
2022-06-24 16:42:13 GMT 52.929337 16.174927 38,000 276 448 0
2022-06-24 16:42:10 GMT 52.928543 16.188511 38,000 276 447 0
2022-06-24 16:42:06 GMT 52.927826 16.199799 38,000 276 447 0
2022-06-24 16:42:03 GMT 52.927010 16.213152 38,000 276 447 0
2022-06-24 16:41:59 GMT 52.926170 16.226807 38,000 276 447 0
2022-06-24 16:41:55 GMT 52.925472 16.238028 38,000 276 447 0
2022-06-24 16:41:51 GMT 52.924496 16.253801 38,000 276 446 0
2022-06-24 16:41:48 GMT 52.924076 16.260942 38,000 276 446 0
2022-06-24 16:41:45 GMT 52.923424 16.271458 38,000 276 446 0
2022-06-24 16:41:42 GMT 52.922791 16.281586 38,000 276 446 0
2022-06-24 16:41:39 GMT 52.922073 16.293901 38,000 276 446 0
2022-06-24 16:41:35 GMT 52.920547 16.319351 38,000 276 446 64
2022-06-24 16:41:31 GMT 52.920547 16.319351 38,000 276 446 64
2022-06-24 16:41:28 GMT 52.919724 16.332779 38,000 276 446 0
2022-06-24 16:41:25 GMT 52.919403 16.338196 38,000 276 446 0
2022-06-24 16:41:21 GMT 52.918442 16.353855 38,000 276 446 0
2022-06-24 16:41:17 GMT 52.917206 16.374741 38,000 276 445 0
2022-06-24 16:41:11 GMT 52.915878 16.396332 38,000 276 445 0
2022-06-24 16:41:08 GMT 52.914951 16.411377 38,000 276 445 0
2022-06-24 16:41:05 GMT 52.914951 16.411377 38,000 276 445 0
2022-06-24 16:41:00 GMT 52.914162 16.423697 38,000 276 445 0
2022-06-24 16:40:56 GMT 52.913361 16.437073 38,000 276 445 0
2022-06-24 16:40:53 GMT 52.912674 16.448059 38,000 276 445 0
2022-06-24 16:40:50 GMT 52.911831 16.461052 38,000 276 445 0
2022-06-24 16:40:47 GMT 52.911320 16.469604 38,000 276 445 0
2022-06-24 16:40:44 GMT 52.910706 16.479340 38,000 276 445 0
2022-06-24 16:40:41 GMT 52.910065 16.489380 38,000 276 445 0
2022-06-24 16:40:38 GMT 52.908691 16.511612 38,000 276 445 0
2022-06-24 16:40:35 GMT 52.908691 16.511612 38,000 276 445 0
2022-06-24 16:40:31 GMT 52.908096 16.520920 38,000 276 445 0
2022-06-24 16:40:28 GMT 52.907455 16.531050 38,000 276 445 0
2022-06-24 16:40:25 GMT 52.906723 16.543274 38,000 276 445 0
2022-06-24 16:40:21 GMT 52.905781 16.558201 38,000 276 445 0
2022-06-24 16:40:17 GMT 52.905121 16.568909 38,000 276 445 0
2022-06-24 16:40:13 GMT 52.904022 16.586151 38,000 276 445 0
2022-06-24 16:40:10 GMT 52.903519 16.594162 38,000 276 445 0
2022-06-24 16:40:07 GMT 52.903034 16.601912 38,000 276 445 0
2022-06-24 16:40:04 GMT 52.901360 16.627886 38,000 276 445 0
2022-06-24 16:40:00 GMT 52.901360 16.627886 38,000 276 445 0
2022-06-24 16:39:57 GMT 52.899948 16.650696 38,000 276 445 0
2022-06-24 16:39:53 GMT 52.899948 16.650696 38,000 277 446 0
2022-06-24 16:39:49 GMT 52.899124 16.663591 38,000 276 445 0
2022-06-24 16:39:46 GMT 52.897774 16.684544 38,000 276 445 0
2022-06-24 16:39:43 GMT 52.897774 16.684544 38,000 276 445 0
2022-06-24 16:39:39 GMT 52.896927 16.698303 38,000 276 445 0
2022-06-24 16:39:36 GMT 52.896240 16.709442 38,000 276 445 -64
2022-06-24 16:39:33 GMT 52.895725 16.717190 38,000 276 445 0
2022-06-24 16:39:30 GMT 52.894730 16.733017 38,000 276 445 0
2022-06-24 16:39:27 GMT 52.894188 16.741516 38,000 277 446 0
2022-06-24 16:39:24 GMT 52.893723 16.748962 38,000 277 446 0
2022-06-24 16:39:21 GMT 52.893120 16.758623 38,000 277 446 0
2022-06-24 16:39:18 GMT 52.892441 16.769333 38,000 277 446 0
2022-06-24 16:39:14 GMT 52.891571 16.783295 38,000 277 446 0
2022-06-24 16:39:11 GMT 52.890186 16.804453 38,000 277 446 0
2022-06-24 16:39:07 GMT 52.890186 16.804453 38,000 277 446 0
2022-06-24 16:39:04 GMT 52.888824 16.825790 38,000 277 446 0
2022-06-24 16:39:01 GMT 52.888824 16.825790 38,000 277 446 0
2022-06-24 16:38:58 GMT 52.888138 16.836311 38,000 277 446 0
2022-06-24 16:38:55 GMT 52.887486 16.846357 38,000 277 446 0
2022-06-24 16:38:52 GMT 52.886555 16.860481 38,000 277 446 0
2022-06-24 16:38:49 GMT 52.885998 16.868879 38,000 277 446 0
2022-06-24 16:38:46 GMT 52.885296 16.879160 38,000 277 446 0
2022-06-24 16:38:43 GMT 52.883926 16.899261 38,000 277 447 0
2022-06-24 16:38:40 GMT 52.883297 16.909216 38,000 277 447 0
2022-06-24 16:38:36 GMT 52.882225 16.924517 38,000 277 447 0
2022-06-24 16:38:33 GMT 52.881912 16.929779 38,000 277 447 0
2022-06-24 16:38:30 GMT 52.881912 16.929779 38,000 277 447 0
2022-06-24 16:38:27 GMT 52.881062 16.941938 38,000 277 447 0
2022-06-24 16:38:24 GMT 52.880402 16.952057 38,000 277 447 0
2022-06-24 16:38:21 GMT 52.879570 16.964302 38,000 277 447 0
2022-06-24 16:38:18 GMT 52.879028 16.972427 38,000 277 447 0
2022-06-24 16:38:15 GMT 52.878204 16.984634 38,000 277 447 0
2022-06-24 16:38:12 GMT 52.877430 16.996477 38,000 277 447 0
2022-06-24 16:38:09 GMT 52.877056 17.001657 38,000 277 447 0
2022-06-24 16:38:06 GMT 52.876282 17.013092 38,000 277 448 0
2022-06-24 16:38:03 GMT 52.875660 17.022532 38,000 277 448 0
2022-06-24 16:37:59 GMT 52.874039 17.046967 38,000 277 448 0
2022-06-24 16:37:56 GMT 52.873333 17.057529 38,000 277 448 0
2022-06-24 16:37:53 GMT 52.873333 17.057529 38,000 277 448 0
2022-06-24 16:37:50 GMT 52.872448 17.071106 38,000 277 448 0
2022-06-24 16:37:47 GMT 52.872124 17.075972 38,000 277 448 0
2022-06-24 16:37:44 GMT 52.871155 17.090454 38,000 277 448 0
2022-06-24 16:37:41 GMT 52.870075 17.106968 38,000 277 448 64
2022-06-24 16:37:38 GMT 52.870075 17.106968 38,000 277 448 64
2022-06-24 16:37:35 GMT 52.869415 17.116699 38,000 277 448 0
2022-06-24 16:37:32 GMT 52.868725 17.126902 38,000 277 448 0
2022-06-24 16:37:29 GMT 52.867794 17.140713 38,000 277 448 0
2022-06-24 16:37:26 GMT 52.867355 17.147598 38,000 277 448 0
2022-06-24 16:37:23 GMT 52.866352 17.161821 38,000 277 448 0
2022-06-24 16:37:20 GMT 52.865791 17.170061 38,000 277 448 0
2022-06-24 16:37:17 GMT 52.864208 17.193211 38,000 277 448 0
2022-06-24 16:37:14 GMT 52.864208 17.193211 38,000 277 448 0
2022-06-24 16:37:11 GMT 52.863605 17.202080 38,000 277 448 0
2022-06-24 16:37:08 GMT 52.862411 17.219849 38,000 277 448 0
2022-06-24 16:37:05 GMT 52.862411 17.219849 38,000 277 448 0
2022-06-24 16:37:02 GMT 52.861649 17.231350 38,000 277 448 0
2022-06-24 16:36:59 GMT 52.860718 17.244568 38,000 277 448 0
2022-06-24 16:36:55 GMT 52.860207 17.252537 38,000 277 448 0
2022-06-24 16:36:52 GMT 52.859116 17.268524 38,000 277 448 0
2022-06-24 16:36:48 GMT 52.858250 17.281101 38,000 277 448 0
2022-06-24 16:36:45 GMT 52.857784 17.287851 38,000 277 448 0
2022-06-24 16:36:41 GMT 52.856232 17.309952 38,000 277 448 0
2022-06-24 16:36:38 GMT 52.855877 17.315630 38,000 277 448 0
2022-06-24 16:36:34 GMT 52.854309 17.338028 38,000 277 449 -64
2022-06-24 16:36:31 GMT 52.854309 17.338028 38,000 277 449 0
2022-06-24 16:36:28 GMT 52.853737 17.346157 38,000 277 449 0
2022-06-24 16:36:25 GMT 52.852936 17.356949 38,000 277 449 64
2022-06-24 16:36:21 GMT 52.852020 17.370224 38,000 277 449 0
2022-06-24 16:36:18 GMT 52.850922 17.385559 38,000 277 449 0
2022-06-24 16:36:15 GMT 52.850372 17.392731 38,000 277 449 0
2022-06-24 16:36:12 GMT 52.849731 17.401581 38,000 277 449 0
2022-06-24 16:36:09 GMT 52.848942 17.412624 38,000 277 448 0
2022-06-24 16:36:06 GMT 52.848450 17.419281 38,000 277 449 0
2022-06-24 16:36:03 GMT 52.847450 17.433027 38,000 278 448 0
2022-06-24 16:36:00 GMT 52.846939 17.439541 38,000 278 448 0
2022-06-24 16:35:57 GMT 52.846191 17.449820 38,000 278 448 0
2022-06-24 16:35:54 GMT 52.844425 17.472969 38,000 278 448 0
2022-06-24 16:35:51 GMT 52.844425 17.472969 38,000 278 448 0
2022-06-24 16:35:47 GMT 52.843552 17.484894 38,000 277 448 0
2022-06-24 16:35:43 GMT 52.842518 17.498865 38,000 277 448 0
2022-06-24 16:35:40 GMT 52.841820 17.508362 38,000 277 448 0
2022-06-24 16:35:37 GMT 52.840374 17.528999 38,000 277 449 0
2022-06-24 16:35:34 GMT 52.840374 17.528999 38,000 277 449 0
2022-06-24 16:35:31 GMT 52.839539 17.540850 38,000 277 449 0
2022-06-24 16:35:27 GMT 52.838699 17.552567 38,000 277 449 0
2022-06-24 16:35:24 GMT 52.837921 17.563171 38,000 277 448 64
2022-06-24 16:35:21 GMT 52.836227 17.586823 37,000 277 448 -64
2022-06-24 16:35:18 GMT 52.836227 17.586823 38,000 277 448 -64
2022-06-24 16:35:14 GMT 52.835392 17.598999 38,000 277 448 64
2022-06-24 16:35:10 GMT 52.834305 17.614136 38,000 277 448 0
2022-06-24 16:35:05 GMT 52.833393 17.626465 38,000 277 448 0
2022-06-24 16:35:02 GMT 52.832600 17.637688 38,000 277 448 64
2022-06-24 16:34:59 GMT 52.831787 17.649002 38,000 277 448 0
2022-06-24 16:34:55 GMT 52.830872 17.661209 38,000 277 448 0
2022-06-24 16:34:52 GMT 52.830086 17.672058 38,000 277 448 0
2022-06-24 16:34:49 GMT 52.829453 17.681046 38,000 277 448 0
2022-06-24 16:34:46 GMT 52.828735 17.690735 38,000 277 448 0
2022-06-24 16:34:43 GMT 52.827942 17.701721 38,000 277 448 0
2022-06-24 16:34:40 GMT 52.826920 17.715691 38,000 277 448 0
2022-06-24 16:34:36 GMT 52.825851 17.730207 38,000 277 447 -64
2022-06-24 16:34:33 GMT 52.825432 17.735779 38,000 277 447 -64
2022-06-24 16:34:29 GMT 52.824223 17.752415 38,000 277 445 512
2022-06-24 16:34:26 GMT 52.823753 17.759087 38,000 277 446 384
2022-06-24 16:34:23 GMT 52.822777 17.772898 38,000 277 445 512
2022-06-24 16:34:20 GMT 52.821335 17.793064 37,950 277 445 512
2022-06-24 16:34:17 GMT 52.821335 17.793064 37,950 277 445 512
2022-06-24 16:34:14 GMT 52.820496 17.804680 37,900 277 444 512
2022-06-24 16:34:11 GMT 52.820068 17.810974 37,875 277 444 512
2022-06-24 16:34:08 GMT 52.819427 17.819824 37,850 277 443 512
2022-06-24 16:34:05 GMT 52.818832 17.828445 37,850 277 442 448
2022-06-24 16:34:02 GMT 52.817657 17.844309 37,775 278 440 256
2022-06-24 16:33:57 GMT 52.815887 17.868555 37,775 278 441 384
2022-06-24 16:33:54 GMT 52.814941 17.880707 37,775 278 440 320
2022-06-24 16:33:51 GMT 52.814941 17.880707 37,750 278 440 0
2022-06-24 16:33:48 GMT 52.814163 17.891388 37,775 278 438 -128
2022-06-24 16:33:44 GMT 52.813515 17.899946 37,775 278 437 256
2022-06-24 16:33:40 GMT 52.812210 17.917446 37,700 278 439 832
2022-06-24 16:33:37 GMT 52.811691 17.923813 37,675 278 438 896
2022-06-24 16:33:34 GMT 52.811050 17.932205 37,650 278 437 896
2022-06-24 16:33:31 GMT 52.810253 17.943027 37,600 278 438 896
2022-06-24 16:33:27 GMT 52.809174 17.957535 37,500 278 439 896
2022-06-24 16:33:24 GMT 52.808392 17.967512 37,475 278 439 832
2022-06-24 16:33:20 GMT 52.807434 17.980042 37,450 278 441 832
2022-06-24 16:33:17 GMT 52.806381 17.993927 37,300 278 441 768
2022-06-24 16:33:14 GMT 52.805832 18.001177 37,300 278 441 768
2022-06-24 16:33:11 GMT 52.805191 18.009491 37,300 278 441 768
2022-06-24 16:33:08 GMT 52.804295 18.020952 37,225 278 443 768
2022-06-24 16:33:05 GMT 52.803272 18.033901 37,200 278 443 768
2022-06-24 16:33:01 GMT 52.802444 18.044205 36,825 278 450 1024
2022-06-24 16:32:58 GMT 52.801437 18.057175 37,100 278 448 896
2022-06-24 16:32:54 GMT 52.800667 18.067251 37,050 278 450 1088
2022-06-24 16:32:51 GMT 52.799606 18.080444 36,975 278 452 1600
2022-06-24 16:32:45 GMT 52.798244 18.097700 36,775 278 454 2112
2022-06-24 16:32:42 GMT 52.797314 18.110020 36,650 278 455 2048
2022-06-24 16:32:39 GMT 52.795731 18.129639 36,575 278 456 1984
2022-06-24 16:32:36 GMT 52.795731 18.129639 36,475 278 458 2048
2022-06-24 16:32:33 GMT 52.794937 18.139683 36,350 278 459 2048
2022-06-24 16:32:30 GMT 52.794243 18.148865 36,200 278 461 2112
2022-06-24 16:32:27 GMT 52.793152 18.162842 36,175 278 461 2112
2022-06-24 16:32:23 GMT 52.792374 18.172531 35,975 278 464 2176
2022-06-24 16:32:20 GMT 52.790497 18.196564 35,900 278 471 2304
2022-06-24 16:32:17 GMT 52.790497 18.196564 35,800 278 466 2176
2022-06-24 16:32:14 GMT 52.789959 18.203403 35,550 278 469 1984
2022-06-24 16:32:11 GMT 52.788887 18.217058 35,550 278 469 1984
2022-06-24 16:32:08 GMT 52.788143 18.226789 34,625 278 470 2112
2022-06-24 16:32:05 GMT 52.786652 18.246094 35,300 278 470 2112
2022-06-24 16:32:02 GMT 52.786652 18.246094 35,350 278 471 2304
2022-06-24 16:31:59 GMT 52.785461 18.261795 35,150 278 473 2432
2022-06-24 16:31:56 GMT 52.784653 18.271990 34,850 278 476 2496
2022-06-24 16:31:53 GMT 52.783909 18.282036 34,925 278 476 2496
2022-06-24 16:31:50 GMT 52.782806 18.295746 34,775 278 477 2432
2022-06-24 16:31:46 GMT 52.781113 18.317505 34,425 278 479 2240
2022-06-24 16:31:43 GMT 52.781113 18.317505 34,225 278 483 2176
2022-06-24 16:31:39 GMT 52.779949 18.332729 34,375 278 482 2112
2022-06-24 16:31:36 GMT 52.779343 18.340105 34,250 278 483 2176
2022-06-24 16:31:33 GMT 52.778137 18.355331 34,175 278 485 2112
2022-06-24 16:31:28 GMT 52.776924 18.370789 33,800 278 488 1920
2022-06-24 16:31:25 GMT 52.775665 18.386688 33,475 278 489 1984
2022-06-24 16:31:22 GMT 52.775200 18.392527 33,725 278 488 1920
2022-06-24 16:31:18 GMT 52.773991 18.407671 33,600 278 488 1984
2022-06-24 16:31:15 GMT 52.773151 18.418344 33,575 278 489 1984
2022-06-24 16:31:09 GMT 52.770401 18.452911 33,300 278 491 1984
2022-06-24 16:31:04 GMT 52.769615 18.462446 33,200 278 491 2048
2022-06-24 16:31:01 GMT 52.769150 18.468330 33,175 278 491 2048
2022-06-24 16:30:58 GMT 52.768204 18.480530 32,875 278 493 2048
2022-06-24 16:30:55 GMT 52.767147 18.493443 32,775 278 496 2112
2022-06-24 16:30:52 GMT 52.765984 18.508039 32,800 278 494 2048
2022-06-24 16:30:47 GMT 52.764908 18.521652 32,600 278 495 2048
2022-06-24 16:30:44 GMT 52.763611 18.537781 32,500 278 495 2112
2022-06-24 16:30:41 GMT 52.762119 18.556458 32,275 278 497 2176
2022-06-24 16:30:38 GMT 52.762119 18.556458 32,325 278 497 2176
2022-06-24 16:30:35 GMT 52.761246 18.567429 32,200 278 497 2176
2022-06-24 16:30:32 GMT 52.760193 18.580627 32,100 278 498 2112
2022-06-24 16:30:29 GMT 52.759235 18.592241 32,000 278 499 2048
2022-06-24 16:30:26 GMT 52.758499 18.601608 31,850 278 499 2048
2022-06-24 16:30:23 GMT 52.756813 18.622688 31,725 278 500 2112
2022-06-24 16:30:17 GMT 52.755890 18.634033 31,450 278 501 1920
2022-06-24 16:30:14 GMT 52.755020 18.644867 31,475 278 501 1920
2022-06-24 16:30:11 GMT 52.753830 18.659897 31,400 278 502 1920
2022-06-24 16:30:06 GMT 52.751495 18.688507 31,225 278 502 1984
2022-06-24 16:30:03 GMT 52.750713 18.698181 30,925 278 503 1600
2022-06-24 16:30:00 GMT 52.750713 18.698181 31,075 278 503 1984
2022-06-24 16:29:57 GMT 52.749413 18.714190 30,950 278 503 1600
2022-06-24 16:29:54 GMT 52.748714 18.722979 30,850 278 503 1408
2022-06-24 16:29:51 GMT 52.747559 18.737564 30,800 278 502 1344
2022-06-24 16:29:48 GMT 52.745686 18.760098 30,725 278 502 1344
2022-06-24 16:29:45 GMT 52.745083 18.767630 30,675 278 501 1344
2022-06-24 16:29:42 GMT 52.745083 18.767630 30,625 278 501 1344
2022-06-24 16:29:38 GMT 52.743713 18.784561 30,500 278 500 1408
2022-06-24 16:29:35 GMT 52.742893 18.794468 30,425 278 500 1344
2022-06-24 16:29:32 GMT 52.741974 18.805771 30,250 278 499 1344
2022-06-24 16:29:29 GMT 52.741264 18.814951 30,325 278 499 1344
2022-06-24 16:29:26 GMT 52.740009 18.830095 30,250 278 499 1408
2022-06-24 16:29:23 GMT 52.739136 18.840790 29,550 278 495 1472
2022-06-24 16:29:20 GMT 52.738037 18.853989 30,100 278 497 1408
2022-06-24 16:29:17 GMT 52.737442 18.861084 30,025 278 497 1408
2022-06-24 16:29:14 GMT 52.736282 18.875454 29,950 278 496 1408
2022-06-24 16:29:10 GMT 52.735027 18.890835 29,800 278 495 1472
2022-06-24 16:29:07 GMT 52.733910 18.904018 29,775 278 495 1472
2022-06-24 16:29:02 GMT 52.732883 18.916653 29,625 278 494 1472
2022-06-24 16:28:59 GMT 52.731907 18.928579 29,625 278 493 1472
2022-06-24 16:28:55 GMT 52.730209 18.948669 29,475 278 493 1408
2022-06-24 16:28:52 GMT 52.728653 18.966980 29,425 278 492 1344
2022-06-24 16:28:49 GMT 52.727692 18.978271 29,250 278 491 1344
2022-06-24 16:28:46 GMT 52.727692 18.978271 29,300 278 491 1344
2022-06-24 16:28:42 GMT 52.725948 18.999441 29,250 278 490 1344
2022-06-24 16:28:39 GMT 52.725357 19.006348 29,075 278 489 1408
2022-06-24 16:28:36 GMT 52.724552 19.015764 29,000 278 488 1408
2022-06-24 16:28:32 GMT 52.723389 19.029575 28,975 278 488 1472
2022-06-24 16:28:28 GMT 52.721375 19.053192 28,850 279 487 1536
2022-06-24 16:28:25 GMT 52.721375 19.053192 28,775 279 486 1536
2022-06-24 16:28:22 GMT 52.720268 19.065989 28,725 279 486 1536
2022-06-24 16:28:19 GMT 52.719013 19.080427 28,650 279 485 1472
2022-06-24 16:28:16 GMT 52.718124 19.091187 28,575 279 485 1472
2022-06-24 16:28:12 GMT 52.716888 19.105225 28,475 279 484 1536
2022-06-24 16:28:08 GMT 52.715744 19.118423 28,350 279 483 1472
2022-06-24 16:28:05 GMT 52.715008 19.126883 28,325 279 482 1536
2022-06-24 16:28:01 GMT 52.713566 19.143911 28,200 279 481 1600
2022-06-24 16:27:56 GMT 52.712036 19.161453 28,025 279 480 1408
2022-06-24 16:27:53 GMT 52.711029 19.173355 27,925 279 478 1472
2022-06-24 16:27:50 GMT 52.710400 19.180325 27,925 279 478 1472
2022-06-24 16:27:47 GMT 52.709145 19.195000 27,850 279 477 1536
2022-06-24 16:27:43 GMT 52.708073 19.207476 27,700 279 476 1664
2022-06-24 16:27:40 GMT 52.707283 19.216814 27,675 279 476 1664
2022-06-24 16:27:35 GMT 52.705490 19.237671 26,600 278 474 1600
2022-06-24 16:27:32 GMT 52.704575 19.248199 27,450 278 474 1600
2022-06-24 16:27:29 GMT 52.703789 19.257151 27,400 279 473 1600
2022-06-24 16:27:25 GMT 52.702347 19.273943 27,250 279 472 1728
2022-06-24 16:27:21 GMT 52.700089 19.300308 27,100 279 471 1728
2022-06-24 16:27:17 GMT 52.698811 19.315535 27,025 279 470 1664
2022-06-24 16:27:14 GMT 52.698811 19.315535 26,925 279 466 1728
2022-06-24 16:27:09 GMT 52.696342 19.343784 26,725 279 468 1920
2022-06-24 16:27:05 GMT 52.696342 19.343784 26,650 279 468 1920
2022-06-24 16:27:02 GMT 52.695457 19.353987 26,650 279 468 1920
2022-06-24 16:26:59 GMT 52.694572 19.364737 26,500 279 467 1792
2022-06-24 16:26:55 GMT 52.693176 19.380722 26,375 279 466 1728
2022-06-24 16:26:51 GMT 52.691967 19.394480 26,250 279 465 1792
2022-06-24 16:26:48 GMT 52.691162 19.403687 26,175 279 465 1856
2022-06-24 16:26:45 GMT 52.690201 19.414673 26,025 279 464 1920
2022-06-24 16:26:42 GMT 52.689606 19.421616 25,900 279 463 1792
2022-06-24 16:26:39 GMT 52.688427 19.435127 25,900 279 463 1792
2022-06-24 16:26:36 GMT 52.687359 19.447292 25,400 279 462 1856
2022-06-24 16:26:33 GMT 52.686287 19.459534 25,675 279 461 1856
2022-06-24 16:26:28 GMT 52.685211 19.471588 25,450 279 460 1792
2022-06-24 16:26:25 GMT 52.684330 19.481899 25,425 279 460 1792
2022-06-24 16:26:22 GMT 52.683334 19.492950 25,375 279 459 1792
2022-06-24 16:26:18 GMT 52.682144 19.506538 25,250 279 458 1728
2022-06-24 16:26:15 GMT 52.680862 19.521027 25,125 279 457 1792
2022-06-24 16:26:11 GMT 52.679256 19.539106 24,975 279 455 1664
2022-06-24 16:26:05 GMT 52.677155 19.562378 24,825 279 454 1600
2022-06-24 16:26:02 GMT 52.677155 19.562378 24,800 279 454 1600
2022-06-24 16:25:59 GMT 52.676090 19.574497 24,700 279 452 1728
2022-06-24 16:25:54 GMT 52.674042 19.597649 24,500 279 450 1856
2022-06-24 16:25:51 GMT 52.674042 19.597649 24,500 279 450 1856
2022-06-24 16:25:48 GMT 52.673035 19.609070 24,375 279 449 1856
2022-06-24 16:25:44 GMT 52.671982 19.620743 24,275 279 448 1792
2022-06-24 16:25:41 GMT 52.670551 19.636726 24,150 279 447 1728
2022-06-24 16:25:38 GMT 52.669876 19.644394 24,075 279 446 1792
2022-06-24 16:25:34 GMT 52.668877 19.655561 23,875 279 444 1856
2022-06-24 16:25:31 GMT 52.667896 19.666233 23,825 279 443 1920
2022-06-24 16:25:28 GMT 52.665756 19.690323 23,750 279 442 1984
2022-06-24 16:25:25 GMT 52.665756 19.690323 23,650 279 441 1984
2022-06-24 16:25:20 GMT 52.663788 19.712067 23,075 279 440 1984
2022-06-24 16:25:17 GMT 52.663788 19.712067 23,425 279 440 1920
2022-06-24 16:25:12 GMT 52.662033 19.731445 23,225 279 437 1792
2022-06-24 16:25:08 GMT 52.659622 19.757919 22,550 279 434 2240
2022-06-24 16:25:03 GMT 52.659622 19.757919 23,000 279 434 2240
2022-06-24 16:25:00 GMT 52.658543 19.769426 22,850 279 434 2240
2022-06-24 16:24:57 GMT 52.657150 19.784698 22,650 279 432 2048
2022-06-24 16:24:54 GMT 52.656727 19.789358 22,650 279 432 1984
2022-06-24 16:24:51 GMT 52.655685 19.800797 22,525 279 430 1920
2022-06-24 16:24:46 GMT 52.654633 19.812429 22,400 279 429 2048
2022-06-24 16:24:42 GMT 52.653141 19.828518 22,225 279 427 2112
2022-06-24 16:24:39 GMT 52.652206 19.839020 22,100 279 427 2112
2022-06-24 16:24:36 GMT 52.651474 19.847031 21,350 279 424 2240
2022-06-24 16:24:33 GMT 52.649792 19.865244 21,875 279 424 2176
2022-06-24 16:24:30 GMT 52.649792 19.865244 21,825 279 424 2176
2022-06-24 16:24:26 GMT 52.648499 19.879456 21,650 279 423 2496
2022-06-24 16:24:22 GMT 52.647182 19.893728 21,475 279 422 2624
2022-06-24 16:24:19 GMT 52.645432 19.912720 21,250 279 422 2496
2022-06-24 16:24:16 GMT 52.645432 19.912720 21,225 279 422 2432
2022-06-24 16:24:12 GMT 52.643967 19.928665 21,025 279 421 2496
2022-06-24 16:24:08 GMT 52.643188 19.937134 20,350 279 399 3008
2022-06-24 16:24:03 GMT 52.641598 19.954075 20,675 279 419 2432
2022-06-24 16:23:59 GMT 52.640533 19.965744 20,550 279 418 2368
2022-06-24 16:23:55 GMT 52.639454 19.977617 20,400 279 416 2304
2022-06-24 16:23:51 GMT 52.638290 19.989939 20,150 279 414 2240
2022-06-24 16:23:48 GMT 52.637466 19.999008 20,075 279 414 2240
2022-06-24 16:23:45 GMT 52.636414 20.009995 20,000 279 412 2240
2022-06-24 16:23:41 GMT 52.635406 20.020981 19,875 279 411 2176
2022-06-24 16:23:37 GMT 52.634193 20.034040 16,550 279 399 3008
2022-06-24 16:23:33 GMT 52.633171 20.044870 19,600 279 408 2112
2022-06-24 16:23:30 GMT 52.632477 20.052261 19,500 279 407 2176
2022-06-24 16:23:26 GMT 52.631149 20.066528 19,325 279 405 2432
2022-06-24 16:23:21 GMT 52.629547 20.083618 19,100 279 404 2560
2022-06-24 16:23:18 GMT 52.628860 20.091171 18,975 279 403 2624
2022-06-24 16:23:15 GMT 52.627956 20.100586 18,850 279 402 2752
2022-06-24 16:23:12 GMT 52.626984 20.110931 18,675 279 401 2880
2022-06-24 16:23:08 GMT 52.626068 20.120850 18,475 279 401 3008
2022-06-24 16:23:05 GMT 52.624741 20.134659 18,300 279 401 3008
2022-06-24 16:23:02 GMT 52.623596 20.147018 18,075 279 400 2944
2022-06-24 16:22:56 GMT 52.622543 20.158081 16,550 279 399 3008
2022-06-24 16:22:51 GMT 52.621113 20.172783 17,600 279 399 3008
2022-06-24 16:22:48 GMT 52.620369 20.180786 17,525 279 399 3008
2022-06-24 16:22:45 GMT 52.619438 20.190437 17,150 279 398 3200
2022-06-24 16:22:41 GMT 52.618275 20.202444 17,100 279 398 3136
2022-06-24 16:22:38 GMT 52.617325 20.212402 16,975 279 398 3072
2022-06-24 16:22:35 GMT 52.616272 20.223389 16,550 280 385 2752
2022-06-24 16:22:32 GMT 52.615063 20.236111 16,600 279 397 2816
2022-06-24 16:22:29 GMT 52.615063 20.236111 16,575 279 397 2752
2022-06-24 16:22:25 GMT 52.613712 20.250156 16,375 280 395 2624
2022-06-24 16:22:21 GMT 52.611694 20.270920 16,075 280 393 2496
2022-06-24 16:22:18 GMT 52.611694 20.270920 16,025 280 393 2368
2022-06-24 16:22:15 GMT 52.610825 20.279694 15,525 280 385 2752
2022-06-24 16:22:11 GMT 52.609543 20.293350 15,750 280 389 2688
2022-06-24 16:22:08 GMT 52.608730 20.301479 15,525 280 387 2944
2022-06-24 16:22:04 GMT 52.607895 20.309982 15,500 280 387 2944
2022-06-24 16:21:59 GMT 52.606247 20.326462 15,225 280 386 2816
2022-06-24 16:21:55 GMT 52.605053 20.338833 14,300 280 370 2368
2022-06-24 16:21:51 GMT 52.603775 20.351791 14,825 280 382 2560
2022-06-24 16:21:48 GMT 52.603329 20.355940 14,775 280 382 2560
2022-06-24 16:21:44 GMT 52.602081 20.368729 14,425 280 380 2432
2022-06-24 16:21:41 GMT 52.600479 20.385208 14,425 280 377 2368
2022-06-24 16:21:38 GMT 52.600479 20.385208 14,350 280 377 2304
2022-06-24 16:21:34 GMT 52.597977 20.410400 14,125 280 374 2368
2022-06-24 16:21:30 GMT 52.597977 20.410400 13,975 280 371 2368
2022-06-24 16:21:27 GMT 52.597137 20.419083 13,850 280 369 2368
2022-06-24 16:21:24 GMT 52.596176 20.428391 13,725 280 367 2432
2022-06-24 16:21:21 GMT 52.595695 20.433550 13,575 280 365 2560
2022-06-24 16:21:18 GMT 52.594952 20.440769 13,575 280 365 2560
2022-06-24 16:21:15 GMT 52.594070 20.449600 13,150 280 361 3136
2022-06-24 16:21:11 GMT 52.592903 20.461250 13,175 280 361 3136
2022-06-24 16:21:08 GMT 52.592194 20.468216 12,925 280 360 3072
2022-06-24 16:21:05 GMT 52.591278 20.477295 12,825 280 358 3072
2022-06-24 16:21:02 GMT 52.590134 20.488281 12,650 280 358 3200
2022-06-24 16:20:58 GMT 52.589363 20.495781 12,500 280 357 3520
2022-06-24 16:20:54 GMT 52.587921 20.509905 12,175 280 358 3776
2022-06-24 16:20:49 GMT 52.586803 20.520891 11,850 280 357 3200
2022-06-24 16:20:46 GMT 52.586105 20.527954 11,700 280 349 2560
2022-06-24 16:20:43 GMT 52.585266 20.536037 11,700 280 349 2560
2022-06-24 16:20:40 GMT 52.583862 20.549850 11,450 280 352 2560
2022-06-24 16:20:36 GMT 52.582443 20.563583 11,325 280 350 2688
2022-06-24 16:20:33 GMT 52.582443 20.563583 11,225 280 350 2624
2022-06-24 16:20:28 GMT 52.581070 20.576782 11,025 280 343 1536
2022-06-24 16:20:25 GMT 52.580246 20.584412 10,975 280 340 1024
2022-06-24 16:20:18 GMT 52.577591 20.610580 10,800 280 327 960
2022-06-24 16:20:14 GMT 52.577591 20.610580 10,775 280 323 896
2022-06-24 16:20:10 GMT 52.576565 20.621494 10,725 279 316 960
2022-06-24 16:20:07 GMT 52.576050 20.626909 10,575 279 310 1536
2022-06-24 16:20:03 GMT 52.574936 20.638885 10,500 279 305 2304
2022-06-24 16:20:00 GMT 52.574516 20.643938 10,425 279 304 2944
2022-06-24 16:19:57 GMT 52.573353 20.657436 10,175 278 302 3392
2022-06-24 16:19:54 GMT 52.573353 20.657436 10,100 278 302 3392
2022-06-24 16:19:50 GMT 52.572605 20.667246 9,850 277 301 3456
2022-06-24 16:19:45 GMT 52.571823 20.678482 9,500 276 300 3456
2022-06-24 16:19:42 GMT 52.571411 20.685272 9,375 276 300 3392
2022-06-24 16:19:37 GMT 52.570465 20.703735 9,000 274 297 3328
2022-06-24 16:19:33 GMT 52.570465 20.703735 8,825 274 296 3328
2022-06-24 16:19:30 GMT 52.570129 20.713043 8,700 273 295 3392
2022-06-24 16:19:27 GMT 52.569950 20.720608 8,525 272 294 3392
2022-06-24 16:19:23 GMT 52.569813 20.726336 8,375 274 293 3392
2022-06-24 16:19:19 GMT 52.569489 20.735989 8,125 278 293 3072
2022-06-24 16:19:15 GMT 52.568481 20.746613 7,900 286 293 2816
2022-06-24 16:19:12 GMT 52.567764 20.750664 7,825 288 292 2752
2022-06-24 16:19:09 GMT 52.566135 20.758118 7,650 295 292 2880
2022-06-24 16:19:06 GMT 52.560883 20.772705 7,375 304 291 3136
2022-06-24 16:19:02 GMT 52.560883 20.772705 7,250 310 290 3200
2022-06-24 16:18:56 GMT 52.555847 20.781479 6,950 321 290 3456
2022-06-24 16:18:53 GMT 52.552681 20.785740 6,775 325 289 3520
2022-06-24 16:18:49 GMT 52.548615 20.790024 6,550 333 288 3392
2022-06-24 16:18:44 GMT 52.542206 20.794678 6,200 346 285 3328
2022-06-24 16:18:41 GMT 52.538315 20.796509 6,100 347 284 3328
2022-06-24 16:18:38 GMT 52.535130 20.797747 5,950 349 283 3456
2022-06-24 16:18:33 GMT 52.528706 20.799709 5,650 350 281 3776
2022-06-24 16:18:29 GMT 52.522751 20.801544 5,350 350 280 3904
2022-06-24 16:18:23 GMT 52.515675 20.803711 5,025 350 280 3456
2022-06-24 16:18:19 GMT 52.509521 20.805588 4,775 350 276 2752
2022-06-24 16:18:14 GMT 52.504074 20.807190 4,550 352 271 2176
2022-06-24 16:18:11 GMT 52.499405 20.808334 4,450 356 266 2048
2022-06-24 16:18:08 GMT 52.497116 20.808640 4,400 359 264 2048
2022-06-24 16:18:05 GMT 52.492172 20.808563 4,150 6 257 1984
2022-06-24 16:18:02 GMT 52.489323 20.807949 4,175 25 238 1728
2022-06-24 16:17:58 GMT 52.485077 20.806274 4,075 18 245 1600
2022-06-24 16:17:54 GMT 52.481003 20.803680 3,975 28 235 1792
2022-06-24 16:17:51 GMT 52.478531 20.801620 3,875 33 231 1920
2022-06-24 16:17:48 GMT 52.475418 20.798492 3,775 36 228 1856
2022-06-24 16:17:42 GMT 52.470383 20.791779 1,925 81 209 2560
2022-06-24 16:17:38 GMT 52.467453 20.786438 3,375 52 220 2496
2022-06-24 16:17:33 GMT 52.464649 20.779619 3,175 61 217 2624
2022-06-24 16:17:28 GMT 52.462555 20.772400 2,950 71 213 2624
2022-06-24 16:17:23 GMT 52.461136 20.763855 2,725 80 210 2432
2022-06-24 16:17:18 GMT 52.460403 20.756607 2,525 81 208 2624
2022-06-24 16:17:12 GMT 52.459625 20.748062 2,325 81 206 1920
2022-06-24 16:17:08 GMT 52.458984 20.740891 2,200 81 201 1024
2022-06-24 16:17:02 GMT 52.458225 20.732927 1,925 81 192 1088
2022-06-24 16:16:57 GMT 52.457565 20.724945 2,025 82 188 1216
2022-06-24 16:16:51 GMT 52.456970 20.717312 1,925 83 178 640
2022-06-24 16:16:47 GMT 52.456558 20.711823 1,875 82 172 896
2022-06-24 16:16:41 GMT 52.455460 20.698624 1,750 82 163 1408
2022-06-24 16:16:37 GMT 52.455460 20.698624 1,625 82 159 1664
2022-06-24 16:16:32 GMT 52.455013 20.692984 1,475 81 155 2176
2022-06-24 16:16:26 GMT 52.454456 20.687019 1,275 81 154 2368
2022-06-24 16:16:22 GMT 52.453949 20.681381 1,075 81 153 2816
2022-06-24 16:16:17 GMT 52.453384 20.675642 825 81 156 3072

Making use of Plane Finder data

You are free to use the raw flight data, aircraft information and images provided in this report for your own purposes provided the data is correctly attributed to Plane Finder. We ask that you please credit Plane Finder and link to planefinder.net in close proximity to the content.

Optionally one of the following logos (no smaller then 150x24px) can be used and must link to planefinder.net

Embedding the Plane Finder map

You are welcome to embed the Plane Finder playback map on your website to offer visitors a more interactive experience. We suggest using the following HTML code:

<iframe src="//planefinder.net/data/report/FR4742-SP-RKT-7700-squawk-2022-06-24/map" width="800" height="600" seamless="seamless"></iframe>

Where our data comes from

Plane Finder has a global network of data feeds and antenna radars that receive data broadcast directly from aircraft. The primary technologies used are ADS-B and MLAT. We also show feeds from the FAA and a FLARM glider feed.

Click here to find out more about the Plane Finder network.

How we collect our data